M I D A S
Marine Information and Data Acquisition System
Tripno 1760 of the Zeeleeuw from 2009-06-19 06:15:55 to 2009-06-19 16:13:22
Back to CruiseResearch ActivitiesStationsMapUnderway DataData graphs

EquipmentUnitsComment
TimeDGPSUTC
LatitudeDGPSDM.mWGS84
LongitudeDGPSDM.mWGS84
TemperatureSBE03/SBE38deg celciusITS90
ConductivitySBE21S/mITS90
SalinitySBE21 Practical Salinity Units
ChlorophylAChelsea fluorimeterg/lCalibrated in Aceton
Missing or incorrect values are displayed as -999
Sea surface data collected by the RV Zeeleeuw from 2009-06-19 06:19:04 to 2009-06-19 16:24:32
                                                                                    Next 1000 lines
Time Latitude Longitude Temperature Conductivity Salinity ChlorophylA
2009-06-19 06:19:15 51°13.662 2°55.954 20.4752 0.259584 1.585028 0.810283
2009-06-19 06:19:19 51°13.663 2°55.952 20.4941 0.259584 1.585028 0.810283
2009-06-19 06:19:24 51°13.664 2°55.948 20.5089 0.259584 1.585028 0.810283
2009-06-19 06:19:29 51°13.665 2°55.943 20.5079 0.259584 1.585059 0.810283
2009-06-19 06:19:36 51°13.667 2°55.935 20.5074 0.259584 1.585028 0.810283
2009-06-19 06:19:41 51°13.669 2°55.928 20.5107 0.259584 1.585059 0.810283
2009-06-19 06:19:47 51°13.671 2°55.92 20.5085 0.259584 1.585059 0.810283
2009-06-19 06:19:52 51°13.674 2°55.913 20.5304 0.259584 1.585059 0.810283
2009-06-19 06:19:58 51°13.676 2°55.905 20.5212 0.259687 1.585723 0.810283
2009-06-19 06:20:03 51°13.678 2°55.898 20.5227 0.259584 1.585089 0.810283
2009-06-19 06:20:08 51°13.68 2°55.891 20.5193 0.259584 1.58512 0.810283
2009-06-19 06:20:13 51°13.681 2°55.885 20.5266 0.259584 1.58512 0.810283
2009-06-19 06:20:18 51°13.683 2°55.878 20.5289 0.259584 1.58512 0.810283
2009-06-19 06:20:23 51°13.684 2°55.871 20.5171 0.259584 1.585151 0.845107
2009-06-19 06:20:28 51°13.686 2°55.864 20.5193 0.259584 1.585151 0.810283
2009-06-19 06:20:33 51°13.687 2°55.857 20.522 0.259584 1.585151 0.810283
2009-06-19 06:20:38 51°13.688 2°55.85 20.5243 0.259584 1.585151 0.810283
2009-06-19 06:20:43 51°13.689 2°55.844 20.5203 0.259584 1.585181 0.810283
2009-06-19 06:20:48 51°13.69 2°55.837 20.5234 0.259584 1.585181 0.810283
2009-06-19 06:20:53 51°13.69 2°55.83 20.5221 0.259584 1.585181 0.810283
2009-06-19 06:20:58 51°13.691 2°55.824 20.5222 0.259584 1.585181 0.810283
2009-06-19 06:21:03 51°13.691 2°55.817 20.5213 0.259584 1.585212 0.810283
2009-06-19 06:21:08 51°13.691 2°55.81 20.5252 0.259584 1.585181 0.810283
2009-06-19 06:21:13 51°13.691 2°55.803 20.5362 0.259584 1.585181 0.810283
2009-06-19 06:21:18 51°13.691 2°55.796 20.5299 0.259584 1.585181 0.810283
2009-06-19 06:21:23 51°13.691 2°55.79 20.5231 0.259584 1.585181 0.810283
2009-06-19 06:21:28 51°13.691 2°55.783 20.5387 0.259584 1.585212 0.810283
2009-06-19 06:21:33 51°13.69 2°55.777 20.5416 0.259584 1.585212 0.810283
2009-06-19 06:21:38 51°13.69 2°55.771 20.5416 0.259584 1.585181 0.810283
2009-06-19 06:21:43 51°13.69 2°55.766 20.5421 0.259584 1.585181 0.810283
2009-06-19 06:21:48 51°13.69 2°55.761 20.5364 0.259584 1.585181 0.810283
2009-06-19 06:21:53 51°13.69 2°55.756 20.535 0.259584 1.585212 0.810283
2009-06-19 06:21:58 51°13.69 2°55.751 20.552 0.259584 1.585212 0.810283
2009-06-19 06:22:03 51°13.69 2°55.749 20.5577 0.259481 1.584548 0.810283
2009-06-19 06:22:08 51°13.69 2°55.749 20.5824 0.259481 1.584548 0.810283
2009-06-19 06:22:12 51°13.691 2°55.75 20.5735 0.259481 1.584579 0.810283
2009-06-19 06:22:17 51°13.692 2°55.753 20.5514 0.259481 1.584579 0.810283
2009-06-19 06:22:22 51°13.694 2°55.755 20.5351 0.259481 1.584579 0.810283
2009-06-19 06:22:27 51°13.696 2°55.758 20.5269 0.259481 1.58461 0.810283
2009-06-19 06:22:32 51°13.698 2°55.76 20.5125 0.259481 1.58461 0.810283
2009-06-19 06:22:36 51°13.699 2°55.762 20.4767 0.259481 1.58461 0.810283
2009-06-19 06:22:41 51°13.701 2°55.764 20.4807 0.259481 1.58461 0.810283
2009-06-19 06:22:46 51°13.702 2°55.765 20.5079 0.259481 1.58461 0.810283
2009-06-19 06:22:51 51°13.703 2°55.765 20.4833 0.259481 1.584579 0.810283
2009-06-19 06:22:56 51°13.703 2°55.766 20.4805 0.259481 1.584518 0.810283
2009-06-19 06:23:00 51°13.702 2°55.766 20.4958 0.259584 1.585212 0.810283
2009-06-19 06:23:05 51°13.701 2°55.765 20.5298 0.259481 1.584579 0.845107
2009-06-19 06:23:10 51°13.699 2°55.765 20.5266 0.259481 1.584579 0.845107
2009-06-19 06:23:15 51°13.698 2°55.765 20.5313 0.259481 1.584579 0.845107
2009-06-19 06:23:20 51°13.697 2°55.764 20.5335 0.259481 1.584579 0.810283
2009-06-19 06:23:25 51°13.696 2°55.764 20.5453 0.259481 1.584579 0.810283
2009-06-19 06:23:31 51°13.696 2°55.765 20.567 0.259481 1.584548 0.810283
2009-06-19 06:23:36 51°13.697 2°55.765 20.5771 0.259481 1.584548 0.810283
2009-06-19 06:23:42 51°13.7 2°55.766 20.5755 0.259481 1.584548 0.810283
2009-06-19 06:23:47 51°13.703 2°55.765 20.579 0.259481 1.584548 0.810283
2009-06-19 06:23:52 51°13.706 2°55.764 20.5765 0.259481 1.584548 0.810283
2009-06-19 06:23:57 51°13.71 2°55.761 20.5655 0.259481 1.584579 0.810283
2009-06-19 06:24:01 51°13.713 2°55.759 20.5675 0.259379 1.583946 0.810283
2009-06-19 06:24:06 51°13.718 2°55.755 20.5656 0.259379 1.583946 0.810283
2009-06-19 06:24:11 51°13.723 2°55.75 20.5391 0.259379 1.583976 0.810283
2009-06-19 06:24:16 51°13.729 2°55.744 20.5279 0.259379 1.583976 0.810283
2009-06-19 06:24:20 51°13.734 2°55.739 20.5104 0.259379 1.583946 0.810283
2009-06-19 06:24:26 51°13.742 2°55.73 20.519 0.259379 1.583915 0.810283
2009-06-19 06:24:30 51°13.748 2°55.723 20.5175 0.259379 1.583915 0.810283
2009-06-19 06:24:35 51°13.756 2°55.714 20.5123 0.259379 1.583915 0.810283
2009-06-19 06:24:40 51°13.764 2°55.705 20.5056 0.259379 1.583946 0.810283
2009-06-19 06:24:45 51°13.772 2°55.696 20.5162 0.259379 1.583915 0.810283
2009-06-19 06:24:49 51°13.779 2°55.689 20.5005 0.259379 1.583915 0.810283
2009-06-19 06:24:54 51°13.788 2°55.679 20.5082 0.259379 1.583915 0.810283
2009-06-19 06:24:59 51°13.797 2°55.669 20.5163 0.259379 1.583915 0.810283
2009-06-19 06:25:04 51°13.807 2°55.659 20.5089 0.259379 1.583915 0.810283
2009-06-19 06:25:09 51°13.817 2°55.649 20.4667 0.259379 1.583915 0.810283
2009-06-19 06:25:15 51°13.829 2°55.637 20.5075 0.259379 1.583915 0.810283
2009-06-19 06:25:19 51°13.837 2°55.63 20.5136 0.259379 1.583915 0.810283
2009-06-19 06:25:24 51°13.848 2°55.62 20.5198 0.259379 1.583915 0.810283
2009-06-19 06:25:30 51°13.861 2°55.609 20.513 0.259379 1.583946 0.810283
2009-06-19 06:25:35 51°13.873 2°55.599 20.5481 0.259379 1.583946 0.810283
2009-06-19 06:25:39 51°13.882 2°55.592 20.5253 0.259379 1.583946 0.810283
2009-06-19 06:25:44 51°13.894 2°55.583 20.5298 0.259379 1.583946 0.810283
2009-06-19 06:25:49 51°13.906 2°55.574 20.5264 0.259379 1.583946 0.810283
2009-06-19 06:25:55 51°13.92 2°55.563 20.5382 0.259379 1.583976 0.810283
2009-06-19 06:25:59 51°13.93 2°55.556 20.5482 0.259379 1.583946 0.810283
2009-06-19 06:26:04 51°13.943 2°55.547 20.506 0.259379 1.583976 0.810283
2009-06-19 06:26:09 51°13.955 2°55.537 20.5377 0.259379 1.583976 0.810283
2009-06-19 06:26:15 51°13.971 2°55.527 20.5287 0.259379 1.583976 0.810283
2009-06-19 06:26:19 51°13.981 2°55.519 20.56 0.259379 1.583976 0.810283
2009-06-19 06:26:24 51°13.995 2°55.509 20.4874 0.259379 1.583946 0.810283
2009-06-19 06:26:29 51°14.008 2°55.5 20.5597 0.259379 1.583976 0.810283
2009-06-19 06:26:34 51°14.021 2°55.49 20.5519 0.259276 1.583312 0.810283
2009-06-19 06:26:39 51°14.035 2°55.481 20.5176 0.259379 1.583946 0.810283
2009-06-19 06:26:44 51°14.048 2°55.471 20.5284 0.259379 1.583946 0.810283
2009-06-19 06:26:48 51°14.059 2°55.463 20.5605 0.259276 1.583312 0.810283
2009-06-19 06:26:54 51°14.076 2°55.452 20.5488 0.259276 1.583282 0.810283
2009-06-19 06:26:59 51°14.091 2°55.443 20.5413 0.259276 1.583282 0.810283
2009-06-19 06:27:04 51°14.105 2°55.433 20.5422 0.259276 1.583282 0.810283
2009-06-19 06:27:09 51°14.118 2°55.423 20.5607 0.259276 1.583282 0.810283
2009-06-19 06:27:15 51°14.135 2°55.41 20.5448 0.259276 1.583282 0.810283
2009-06-19 06:27:19 51°14.146 2°55.401 20.574 0.259276 1.583282 0.810283
2009-06-19 06:27:24 51°14.159 2°55.389 20.5466 0.259276 1.583282 0.810283
2009-06-19 06:27:29 51°14.172 2°55.377 20.5223 0.259276 1.583282 0.810283
2009-06-19 06:27:35 51°14.187 2°55.361 20.548 0.259276 1.583312 0.845107
2009-06-19 06:27:39 51°14.197 2°55.349 20.4946 0.259276 1.583312 0.810283
2009-06-19 06:27:44 51°14.209 2°55.334 20.5421 0.259276 1.583312 0.810283
2009-06-19 06:27:48 51°14.219 2°55.322 20.4734 0.259276 1.583282 0.810283
2009-06-19 06:27:54 51°14.233 2°55.303 20.5346 0.259276 1.583312 0.810283
2009-06-19 06:27:59 51°14.245 2°55.288 20.5327 0.259276 1.583282 0.810283
2009-06-19 06:28:04 51°14.257 2°55.272 20.5332 0.259276 1.583282 0.810283
2009-06-19 06:28:09 51°14.268 2°55.256 20.5284 0.259276 1.583251 0.810283
2009-06-19 06:28:15 51°14.282 2°55.235 20.4583 0.259276 1.583251 0.810283
2009-06-19 06:28:19 51°14.29 2°55.221 20.5179 0.259276 1.583282 0.810283
2009-06-19 06:28:24 51°14.301 2°55.204 20.5 0.259276 1.583282 0.810283
2009-06-19 06:28:29 51°14.312 2°55.187 20.4578 0.259276 1.583251 0.810283
2009-06-19 06:28:35 51°14.325 2°55.166 20.4916 0.259276 1.583251 0.810283
2009-06-19 06:28:40 51°14.336 2°55.149 20.4239 0.259276 1.583282 0.810283
2009-06-19 06:28:44 51°14.345 2°55.136 20.4899 0.259276 1.583282 0.810283
2009-06-19 06:28:49 51°14.357 2°55.121 20.4909 0.259276 1.583282 0.810283
2009-06-19 06:28:54 51°14.369 2°55.107 20.4671 0.259276 1.583251 0.810283
2009-06-19 06:28:59 51°14.381 2°55.094 20.4886 0.259276 1.583251 0.810283
2009-06-19 06:29:04 51°14.393 2°55.079 20.4644 0.259276 1.583282 0.810283
2009-06-19 06:29:08 51°14.403 2°55.068 20.5005 0.259276 1.583282 0.810283
2009-06-19 06:29:14 51°14.418 2°55.05 20.4633 0.259276 1.583282 0.810283
2009-06-19 06:29:19 51°14.43 2°55.036 20.493 0.259173 1.582618 0.810283
2009-06-19 06:29:24 51°14.441 2°55.021 20.4472 0.259173 1.582618 0.810283
2009-06-19 06:29:29 51°14.453 2°55.005 20.4869 0.259276 1.583312 0.810283
2009-06-19 06:29:35 51°14.467 2°54.987 20.4485 0.259173 1.582649 0.810283
2009-06-19 06:29:39 51°14.476 2°54.975 20.4616 0.259173 1.582618 0.810283
2009-06-19 06:29:44 51°14.488 2°54.96 20.4771 0.259173 1.582618 0.810283
2009-06-19 06:29:49 51°14.5 2°54.945 20.4361 0.259173 1.582618 0.810283
2009-06-19 06:29:55 51°14.514 2°54.927 20.4553 0.259173 1.582649 0.810283
2009-06-19 06:29:59 51°14.524 2°54.916 20.4668 0.259173 1.582649 0.845107
2009-06-19 06:30:04 51°14.536 2°54.903 20.4495 0.259173 1.582649 0.810283
2009-06-19 06:30:08 51°14.547 2°54.893 20.4504 0.259173 1.582618 0.810283
2009-06-19 06:30:14 51°14.562 2°54.879 20.4807 0.259173 1.582618 0.810283
2009-06-19 06:30:19 51°14.576 2°54.868 20.4485 0.259173 1.582618 0.810283
2009-06-19 06:30:24 51°14.589 2°54.855 20.4389 0.259173 1.582649 0.810283
2009-06-19 06:30:29 51°14.602 2°54.844 20.4465 0.259173 1.582618 0.810283
2009-06-19 06:30:35 51°14.618 2°54.829 20.4724 0.259173 1.582618 0.845107
2009-06-19 06:30:39 51°14.628 2°54.819 20.4537 0.259173 1.582649 0.810283
2009-06-19 06:30:44 51°14.641 2°54.807 20.4649 0.259173 1.582649 0.810283
2009-06-19 06:30:49 51°14.653 2°54.793 20.4595 0.259173 1.582649 0.810283
2009-06-19 06:30:54 51°14.665 2°54.779 20.4734 0.259173 1.582618 0.810283
2009-06-19 06:30:59 51°14.676 2°54.763 20.4731 0.259173 1.582618 0.810283
2009-06-19 06:31:04 51°14.687 2°54.747 20.4439 0.259173 1.582618 0.810283
2009-06-19 06:31:08 51°14.695 2°54.733 20.463 0.259173 1.582618 0.810283
2009-06-19 06:31:14 51°14.706 2°54.71 20.4326 0.259173 1.582618 0.810283
2009-06-19 06:31:19 51°14.715 2°54.691 20.4489 0.259173 1.582587 0.775459
2009-06-19 06:31:24 51°14.722 2°54.672 20.4367 0.25907 1.581954 0.810283
2009-06-19 06:31:29 51°14.73 2°54.652 20.4441 0.259173 1.582587 0.810283
2009-06-19 06:31:35 51°14.738 2°54.628 20.4624 0.25907 1.581924 0.810283
2009-06-19 06:31:39 51°14.743 2°54.611 20.4169 0.259173 1.582587 0.810283
2009-06-19 06:31:44 51°14.748 2°54.589 20.4439 0.259173 1.582587 0.810283
2009-06-19 06:31:49 51°14.754 2°54.568 20.4437 0.259173 1.582587 0.810283
2009-06-19 06:31:55 51°14.759 2°54.541 20.4286 0.25907 1.581893 0.810283
2009-06-19 06:31:59 51°14.763 2°54.523 20.4379 0.259173 1.582587 0.810283
2009-06-19 06:32:04 51°14.766 2°54.5 20.4437 0.25907 1.581924 0.810283
2009-06-19 06:32:09 51°14.77 2°54.478 20.4456 0.259173 1.582557 0.810283
2009-06-19 06:32:15 51°14.773 2°54.45 20.4446 0.259173 1.582557 0.810283
2009-06-19 06:32:19 51°14.776 2°54.432 20.4232 0.259173 1.582557 0.810283
2009-06-19 06:32:24 51°14.779 2°54.409 20.442 0.259173 1.582557 0.810283
2009-06-19 06:32:28 51°14.781 2°54.39 20.451 0.259173 1.582557 0.810283
2009-06-19 06:32:34 51°14.784 2°54.362 20.4285 0.259173 1.582557 0.810283
2009-06-19 06:32:39 51°14.786 2°54.339 20.4364 0.259173 1.582587 0.810283
2009-06-19 06:32:44 51°14.789 2°54.315 20.434 0.259173 1.582587 0.810283
2009-06-19 06:32:49 51°14.792 2°54.292 20.4492 0.25907 1.581924 0.810283
2009-06-19 06:32:55 51°14.796 2°54.264 20.4226 0.259173 1.582587 0.810283
2009-06-19 06:32:59 51°14.798 2°54.246 20.4527 0.259173 1.582587 0.810283
2009-06-19 06:33:04 51°14.801 2°54.222 20.4371 0.259173 1.582587 0.810283
2009-06-19 06:33:09 51°14.805 2°54.2 20.4477 0.259173 1.582587 0.810283
2009-06-19 06:33:15 51°14.809 2°54.172 20.4439 0.259173 1.582587 0.810283
2009-06-19 06:33:20 51°14.812 2°54.149 20.445 0.259173 1.582587 0.810283
2009-06-19 06:33:24 51°14.815 2°54.131 20.431 0.259173 1.582587 0.810283
2009-06-19 06:33:29 51°14.819 2°54.108 20.451 0.259173 1.582587 0.810283
2009-06-19 06:33:34 51°14.823 2°54.085 20.4483 0.25907 1.581924 0.810283
2009-06-19 06:33:39 51°14.827 2°54.061 20.4289 0.259173 1.582587 0.810283
2009-06-19 06:33:44 51°14.831 2°54.038 20.4514 0.259173 1.582587 0.810283
2009-06-19 06:33:48 51°14.834 2°54.02 20.438 0.259173 1.582618 0.810283
2009-06-19 06:33:54 51°14.839 2°53.992 20.4519 0.25907 1.581924 0.810283
2009-06-19 06:33:59 51°14.843 2°53.969 20.4267 0.25907 1.581924 0.810283
2009-06-19 06:34:04 51°14.848 2°53.946 20.4565 0.259173 1.582618 0.810283
2009-06-19 06:34:09 51°14.852 2°53.924 20.4542 0.259173 1.582587 0.810283
2009-06-19 06:34:15 51°14.857 2°53.896 20.4485 0.259173 1.582587 0.810283
2009-06-19 06:34:19 51°14.86 2°53.878 20.4488 0.259173 1.582587 0.810283
2009-06-19 06:34:24 51°14.865 2°53.855 20.4504 0.259173 1.582587 0.810283
2009-06-19 06:34:29 51°14.869 2°53.832 20.4377 0.25907 1.581954 0.810283
2009-06-19 06:34:35 51°14.875 2°53.805 20.4536 0.259173 1.582587 0.810283
2009-06-19 06:34:39 51°14.878 2°53.787 20.4575 0.259173 1.582587 0.810283
2009-06-19 06:34:44 51°14.883 2°53.763 20.4381 0.259173 1.582587 0.810283
2009-06-19 06:34:50 51°14.888 2°53.737 20.4631 0.25907 1.581954 0.810283
2009-06-19 06:34:55 51°14.893 2°53.714 20.4497 0.259173 1.582618 0.810283
2009-06-19 06:34:59 51°14.897 2°53.697 20.4551 0.25907 1.581954 0.810283
2009-06-19 06:35:04 51°14.901 2°53.674 20.46 0.25907 1.581924 0.810283
2009-06-19 06:35:09 51°14.906 2°53.652 20.4531 0.259173 1.582587 0.810283
2009-06-19 06:35:15 51°14.912 2°53.625 20.4522 0.259173 1.582618 0.810283
2009-06-19 06:35:19 51°14.916 2°53.608 20.453 0.259173 1.582618 0.810283
2009-06-19 06:35:24 51°14.92 2°53.585 20.4437 0.25907 1.581924 0.810283
2009-06-19 06:35:29 51°14.925 2°53.562 20.4528 0.259173 1.582587 0.810283
2009-06-19 06:35:35 51°14.93 2°53.535 20.461 0.25907 1.581954 0.810283
2009-06-19 06:35:40 51°14.935 2°53.513 20.455 0.259173 1.582587 0.810283
2009-06-19 06:35:44 51°14.939 2°53.494 20.4496 0.259173 1.582587 0.810283
2009-06-19 06:35:49 51°14.943 2°53.472 20.4455 0.25907 1.581924 0.810283
2009-06-19 06:35:54 51°14.948 2°53.449 20.4553 0.25907 1.581954 0.810283
2009-06-19 06:35:59 51°14.953 2°53.427 20.4385 0.25907 1.581954 0.810283
2009-06-19 06:36:04 51°14.958 2°53.405 20.451 0.25907 1.581954 0.810283
2009-06-19 06:36:08 51°14.962 2°53.387 20.4465 0.259173 1.582618 0.810283
2009-06-19 06:36:14 51°14.968 2°53.361 20.4582 0.259173 1.582618 0.810283
2009-06-19 06:36:19 51°14.973 2°53.339 20.4456 0.25907 1.581954 0.810283
2009-06-19 06:36:24 51°14.978 2°53.317 20.4532 0.25907 1.581954 0.810283
2009-06-19 06:36:29 51°14.983 2°53.295 20.4455 0.259173 1.582618 0.810283
2009-06-19 06:36:35 51°14.989 2°53.268 20.4661 0.25907 1.581954 0.810283
2009-06-19 06:36:39 51°14.992 2°53.25 20.4487 0.25907 1.581954 0.810283
2009-06-19 06:36:44 51°14.997 2°53.228 20.4595 0.25907 1.581954 0.810283
2009-06-19 06:36:49 51°15.002 2°53.206 20.4554 0.25907 1.581954 0.810283
2009-06-19 06:36:55 51°15.007 2°53.179 20.4639 0.25907 1.581954 0.810283
2009-06-19 06:36:59 51°15.011 2°53.16 20.4464 0.25907 1.581954 0.810283
2009-06-19 06:37:04 51°15.016 2°53.138 20.4501 0.259173 1.582618 0.810283
2009-06-19 06:37:09 51°15.021 2°53.115 20.4679 0.25907 1.581954 0.810283
2009-06-19 06:37:15 51°15.027 2°53.088 20.4528 0.25907 1.581985 0.810283
2009-06-19 06:37:19 51°15.031 2°53.071 20.4658 0.25907 1.581985 0.810283
2009-06-19 06:37:24 51°15.036 2°53.048 20.4548 0.259173 1.582649 0.810283
2009-06-19 06:37:28 51°15.04 2°53.03 20.4659 0.25907 1.581985 0.810283
2009-06-19 06:37:35 51°15.047 2°52.999 20.4522 0.25907 1.581985 0.810283
2009-06-19 06:37:39 51°15.051 2°52.981 20.46 0.25907 1.581985 0.810283
2009-06-19 06:37:44 51°15.056 2°52.958 20.4721 0.25907 1.581985 0.810283
2009-06-19 06:37:49 51°15.061 2°52.936 20.463 0.25907 1.581985 0.810283
2009-06-19 06:37:55 51°15.066 2°52.908 20.4677 0.259173 1.582649 0.810283
2009-06-19 06:38:00 51°15.071 2°52.886 20.4619 0.25907 1.582015 0.810283
2009-06-19 06:38:04 51°15.075 2°52.868 20.4575 0.259173 1.582679 0.810283
2009-06-19 06:38:09 51°15.08 2°52.845 20.4657 0.259173 1.582679 0.810283
2009-06-19 06:38:14 51°15.084 2°52.823 20.4731 0.259173 1.582679 0.810283
2009-06-19 06:38:19 51°15.089 2°52.801 20.4744 0.25907 1.582015 0.810283
2009-06-19 06:38:24 51°15.093 2°52.779 20.4722 0.25907 1.582015 0.810283
2009-06-19 06:38:28 51°15.097 2°52.761 20.4756 0.259173 1.582679 0.810283
2009-06-19 06:38:34 51°15.102 2°52.734 20.468 0.259173 1.58271 0.810283
2009-06-19 06:38:39 51°15.107 2°52.712 20.4804 0.259173 1.582679 0.810283
2009-06-19 06:38:44 51°15.111 2°52.689 20.4605 0.259173 1.582679 0.810283
2009-06-19 06:38:49 51°15.116 2°52.667 20.4597 0.259173 1.582679 0.810283
2009-06-19 06:38:55 51°15.122 2°52.64 20.4823 0.259173 1.58271 0.810283
2009-06-19 06:38:59 51°15.125 2°52.622 20.465 0.25907 1.582046 0.810283
2009-06-19 06:39:04 51°15.13 2°52.6 20.476 0.259173 1.58271 0.810283
2009-06-19 06:39:09 51°15.135 2°52.577 20.484 0.25907 1.582046 0.810283
2009-06-19 06:39:15 51°15.141 2°52.55 20.4757 0.25907 1.582046 0.810283
2009-06-19 06:39:19 51°15.145 2°52.532 20.4721 0.259173 1.58271 0.810283
2009-06-19 06:39:24 51°15.15 2°52.51 20.4809 0.259173 1.58271 0.810283
2009-06-19 06:39:29 51°15.154 2°52.487 20.4771 0.259173 1.582741 0.810283
2009-06-19 06:39:35 51°15.16 2°52.46 20.482 0.25907 1.582077 0.810283
2009-06-19 06:39:39 51°15.164 2°52.441 20.4804 0.259173 1.582741 0.810283
2009-06-19 06:39:44 51°15.169 2°52.419 20.4814 0.259173 1.582741 0.810283
2009-06-19 06:39:48 51°15.173 2°52.401 20.4861 0.25907 1.582077 0.810283
2009-06-19 06:39:55 51°15.18 2°52.37 20.4732 0.259173 1.582741 0.810283
2009-06-19 06:40:00 51°15.185 2°52.348 20.4765 0.259173 1.582741 0.810283
2009-06-19 06:40:04 51°15.189 2°52.33 20.4767 0.25907 1.582107 0.810283
2009-06-19 06:40:09 51°15.194 2°52.308 20.4934 0.259173 1.582771 0.845107
2009-06-19 06:40:15 51°15.2 2°52.281 20.4749 0.259173 1.582771 0.845107
2009-06-19 06:40:19 51°15.204 2°52.263 20.4886 0.259173 1.582771 0.810283
2009-06-19 06:40:24 51°15.209 2°52.241 20.4731 0.259173 1.582771 0.810283
2009-06-19 06:40:29 51°15.213 2°52.218 20.4862 0.259173 1.582771 0.810283
2009-06-19 06:40:35 51°15.219 2°52.191 20.4837 0.259173 1.582802 0.810283
2009-06-19 06:40:39 51°15.223 2°52.173 20.4771 0.259173 1.582802 0.810283
2009-06-19 06:40:44 51°15.228 2°52.151 20.4965 0.259173 1.582802 0.810283
2009-06-19 06:40:49 51°15.233 2°52.129 20.4881 0.259173 1.582802 0.810283
2009-06-19 06:40:55 51°15.239 2°52.103 20.4944 0.259173 1.582802 0.810283
2009-06-19 06:40:59 51°15.243 2°52.085 20.4927 0.259173 1.582802 0.810283
2009-06-19 06:41:04 51°15.248 2°52.062 20.4828 0.259173 1.582832 0.810283
2009-06-19 06:41:09 51°15.252 2°52.04 20.4964 0.259173 1.582802 0.810283
2009-06-19 06:41:15 51°15.258 2°52.013 20.4937 0.259173 1.582802 0.810283
2009-06-19 06:41:19 51°15.262 2°51.995 20.4806 0.259173 1.582832 0.810283
2009-06-19 06:41:24 51°15.267 2°51.972 20.4982 0.259173 1.582832 0.810283
2009-06-19 06:41:28 51°15.271 2°51.954 20.4879 0.259173 1.582832 0.810283
2009-06-19 06:41:34 51°15.277 2°51.927 20.4953 0.259173 1.582832 0.810283
2009-06-19 06:41:39 51°15.282 2°51.905 20.4862 0.259173 1.582863 0.810283
2009-06-19 06:41:44 51°15.287 2°51.882 20.4995 0.259173 1.582863 0.810283
2009-06-19 06:41:49 51°15.292 2°51.86 20.4842 0.259173 1.582863 0.810283
2009-06-19 06:41:55 51°15.298 2°51.833 20.5005 0.259173 1.582863 0.810283
2009-06-19 06:41:59 51°15.303 2°51.815 20.4921 0.25907 1.58223 0.810283
2009-06-19 06:42:04 51°15.307 2°51.793 20.4955 0.259276 1.583588 0.810283
2009-06-19 06:42:09 51°15.312 2°51.771 20.5047 0.259173 1.582924 0.810283
2009-06-19 06:42:15 51°15.318 2°51.745 20.4953 0.259173 1.582924 0.810283
2009-06-19 06:42:19 51°15.323 2°51.728 20.5106 0.259173 1.582924 0.810283
2009-06-19 06:42:24 51°15.328 2°51.705 20.495 0.259173 1.582924 0.845107
2009-06-19 06:42:28 51°15.331 2°51.688 20.5087 0.259173 1.582924 0.810283
2009-06-19 06:42:34 51°15.338 2°51.661 20.4936 0.259173 1.582924 0.810283
2009-06-19 06:42:39 51°15.342 2°51.639 20.5104 0.259173 1.582924 0.810283
2009-06-19 06:42:44 51°15.348 2°51.617 20.5036 0.259173 1.582924 0.810283
2009-06-19 06:42:49 51°15.352 2°51.594 20.5021 0.259173 1.582955 0.810283
2009-06-19 06:42:55 51°15.359 2°51.568 20.5022 0.259173 1.582924 0.810283
2009-06-19 06:42:59 51°15.363 2°51.55 20.5008 0.259173 1.582955 0.810283
2009-06-19 06:43:04 51°15.367 2°51.528 20.507 0.259173 1.582955 0.810283
2009-06-19 06:43:09 51°15.372 2°51.506 20.5058 0.259173 1.582955 0.810283
2009-06-19 06:43:15 51°15.377 2°51.479 20.518 0.259173 1.582955 0.810283
2009-06-19 06:43:19 51°15.381 2°51.461 20.5147 0.259173 1.582986 0.810283
2009-06-19 06:43:24 51°15.385 2°51.438 20.5001 0.259173 1.582986 0.810283
2009-06-19 06:43:29 51°15.389 2°51.415 20.511 0.259173 1.582986 0.810283
2009-06-19 06:43:35 51°15.393 2°51.388 20.5035 0.259173 1.582986 0.810283
2009-06-19 06:43:39 51°15.396 2°51.37 20.5213 0.259173 1.583016 0.810283
2009-06-19 06:43:44 51°15.399 2°51.347 20.5082 0.259173 1.583016 0.810283
2009-06-19 06:43:48 51°15.402 2°51.329 20.5208 0.259173 1.583016 0.845107
2009-06-19 06:43:55 51°15.407 2°51.297 20.507 0.259173 1.583016 0.810283
2009-06-19 06:43:59 51°15.409 2°51.279 20.5297 0.259276 1.583711 0.810283
2009-06-19 06:44:04 51°15.412 2°51.257 20.5049 0.259276 1.583711 0.810283
2009-06-19 06:44:09 51°15.415 2°51.235 20.5233 0.259173 1.583078 0.810283
2009-06-19 06:44:15 51°15.419 2°51.208 20.5142 0.259173 1.583078 0.810283
2009-06-19 06:44:19 51°15.421 2°51.191 20.5083 0.259173 1.583108 0.810283
2009-06-19 06:44:24 51°15.425 2°51.168 20.5213 0.259276 1.583742 0.810283
2009-06-19 06:44:29 51°15.428 2°51.146 20.5184 0.259173 1.583078 0.810283
2009-06-19 06:44:34 51°15.432 2°51.123 20.523 0.259276 1.583742 0.810283
2009-06-19 06:44:39 51°15.435 2°51.101 20.5214 0.259173 1.583078 0.810283
2009-06-19 06:44:44 51°15.438 2°51.078 20.5203 0.259173 1.583078 0.810283
2009-06-19 06:44:48 51°15.441 2°51.06 20.518 0.259173 1.583108 0.810283
2009-06-19 06:44:54 51°15.445 2°51.032 20.5303 0.259276 1.583772 0.810283
2009-06-19 06:44:59 51°15.448 2°51.009 20.5168 0.259173 1.583108 0.845107
2009-06-19 06:45:04 51°15.451 2°50.987 20.5241 0.259276 1.583772 0.810283
2009-06-19 06:45:09 51°15.454 2°50.964 20.5275 0.259276 1.583803 0.810283
2009-06-19 06:45:15 51°15.458 2°50.936 20.5217 0.259276 1.583803 0.810283
2009-06-19 06:45:19 51°15.46 2°50.918 20.5343 0.259276 1.583803 0.810283
2009-06-19 06:45:24 51°15.463 2°50.895 20.5315 0.259173 1.583139 0.810283
2009-06-19 06:45:29 51°15.466 2°50.872 20.5262 0.259276 1.583834 0.845107
2009-06-19 06:45:35 51°15.47 2°50.845 20.5311 0.259173 1.58317 0.810283
2009-06-19 06:45:39 51°15.473 2°50.827 20.5385 0.259276 1.583834 0.810283
2009-06-19 06:45:44 51°15.476 2°50.804 20.5269 0.259276 1.583834 0.810283
2009-06-19 06:45:48 51°15.478 2°50.786 20.5331 0.259276 1.583834 0.810283
2009-06-19 06:45:54 51°15.482 2°50.758 20.5353 0.259276 1.583864 0.810283
2009-06-19 06:45:59 51°15.485 2°50.735 20.5258 0.259276 1.583864 0.810283
2009-06-19 06:46:04 51°15.488 2°50.712 20.534 0.259276 1.583895 0.810283
2009-06-19 06:46:09 51°15.491 2°50.69 20.5306 0.259276 1.583864 0.810283
2009-06-19 06:46:15 51°15.495 2°50.662 20.5294 0.259276 1.583864 0.810283
2009-06-19 06:46:19 51°15.497 2°50.643 20.5299 0.259276 1.583895 0.810283
2009-06-19 06:46:24 51°15.5 2°50.62 20.5416 0.259276 1.583926 0.810283
2009-06-19 06:46:29 51°15.503 2°50.597 20.539 0.259173 1.583262 0.810283
2009-06-19 06:46:35 51°15.508 2°50.57 20.5305 0.259276 1.583926 0.810283
2009-06-19 06:46:40 51°15.511 2°50.547 20.5455 0.259276 1.583956 0.810283
2009-06-19 06:46:44 51°15.514 2°50.529 20.5305 0.259276 1.583956 0.810283
2009-06-19 06:46:49 51°15.518 2°50.506 20.5432 0.259276 1.583956 0.810283
2009-06-19 06:46:55 51°15.522 2°50.479 20.541 0.259276 1.583956 0.810283
2009-06-19 06:46:59 51°15.525 2°50.461 20.5446 0.259276 1.583987 0.810283
2009-06-19 06:47:04 51°15.529 2°50.438 20.5361 0.259276 1.583987 0.810283
2009-06-19 06:47:08 51°15.531 2°50.42 20.5469 0.259276 1.583987 0.810283
2009-06-19 06:47:14 51°15.536 2°50.392 20.5358 0.259276 1.583987 0.810283
2009-06-19 06:47:20 51°15.539 2°50.365 20.5506 0.259276 1.584018 0.810283
2009-06-19 06:47:24 51°15.542 2°50.347 20.543 0.259276 1.584018 0.810283
2009-06-19 06:47:29 51°15.546 2°50.324 20.5473 0.259276 1.584018 0.810283
2009-06-19 06:47:35 51°15.55 2°50.297 20.5426 0.259276 1.584048 0.810283
2009-06-19 06:47:39 51°15.552 2°50.278 20.5396 0.259276 1.584048 0.810283
2009-06-19 06:47:44 51°15.555 2°50.255 20.5494 0.259276 1.584048 0.810283
2009-06-19 06:47:49 51°15.559 2°50.232 20.5376 0.259276 1.584048 0.810283
2009-06-19 06:47:55 51°15.562 2°50.205 20.5566 0.259276 1.584079 0.810283
2009-06-19 06:47:59 51°15.564 2°50.187 20.5567 0.259276 1.584079 0.810283
2009-06-19 06:48:04 51°15.568 2°50.165 20.5589 0.259276 1.584079 0.810283
2009-06-19 06:48:08 51°15.57 2°50.147 20.5457 0.259276 1.584079 0.810283
2009-06-19 06:48:14 51°15.574 2°50.12 20.5576 0.259276 1.584079 0.810283
2009-06-19 06:48:19 51°15.577 2°50.097 20.5485 0.259276 1.58411 0.810283
2009-06-19 06:48:24 51°15.58 2°50.075 20.5547 0.259276 1.58411 0.810283
2009-06-19 06:48:29 51°15.583 2°50.052 20.5535 0.259276 1.58411 0.845107
2009-06-19 06:48:35 51°15.587 2°50.025 20.5514 0.259276 1.58411 0.810283
2009-06-19 06:48:39 51°15.59 2°50.006 20.5491 0.259276 1.58411 0.810283
2009-06-19 06:48:44 51°15.593 2°49.984 20.5648 0.259276 1.58411 0.810283
2009-06-19 06:48:49 51°15.596 2°49.961 20.5474 0.259379 1.584805 0.810283
2009-06-19 06:48:55 51°15.599 2°49.934 20.5681 0.259276 1.584171 0.810283
2009-06-19 06:49:00 51°15.603 2°49.911 20.5613 0.259276 1.584171 0.810283
2009-06-19 06:49:04 51°15.605 2°49.894 20.5546 0.259276 1.584171 0.810283
2009-06-19 06:49:09 51°15.608 2°49.871 20.5705 0.259276 1.584171 0.810283
2009-06-19 06:49:15 51°15.612 2°49.844 20.558 0.259276 1.584202 0.810283
2009-06-19 06:49:19 51°15.614 2°49.826 20.567 0.259276 1.584202 0.810283
2009-06-19 06:49:24 51°15.618 2°49.803 20.5612 0.259276 1.584202 0.810283
2009-06-19 06:49:28 51°15.62 2°49.785 20.5638 0.259276 1.584202 0.810283
2009-06-19 06:49:34 51°15.624 2°49.758 20.5675 0.259379 1.584897 0.810283
2009-06-19 06:49:40 51°15.628 2°49.731 20.5601 0.259276 1.584232 0.810283
2009-06-19 06:49:44 51°15.63 2°49.713 20.5722 0.259276 1.584232 0.810283
2009-06-19 06:49:49 51°15.633 2°49.691 20.5621 0.259379 1.584897 0.810283
2009-06-19 06:49:55 51°15.637 2°49.664 20.5635 0.259276 1.584232 0.810283
2009-06-19 06:49:59 51°15.64 2°49.646 20.5779 0.259276 1.584263 0.810283
2009-06-19 06:50:04 51°15.643 2°49.623 20.5653 0.259379 1.584927 0.810283
2009-06-19 06:50:09 51°15.647 2°49.602 20.5836 0.259276 1.584294 0.810283
2009-06-19 06:50:15 51°15.651 2°49.575 20.5662 0.259276 1.584294 0.810283
2009-06-19 06:50:19 51°15.654 2°49.558 20.5702 0.259276 1.584294 0.810283
2009-06-19 06:50:24 51°15.657 2°49.535 20.5779 0.259276 1.584325 0.810283
2009-06-19 06:50:29 51°15.66 2°49.513 20.5721 0.259276 1.584294 0.810283
2009-06-19 06:50:35 51°15.664 2°49.486 20.5737 0.259276 1.584325 0.810283
2009-06-19 06:50:39 51°15.666 2°49.468 20.5777 0.259276 1.584325 0.810283
2009-06-19 06:50:44 51°15.669 2°49.445 20.5735 0.259276 1.584325 0.810283
2009-06-19 06:50:49 51°15.672 2°49.423 20.571 0.259379 1.584989 0.810283
2009-06-19 06:50:55 51°15.676 2°49.396 20.5778 0.259276 1.584355 0.810283
2009-06-19 06:50:59 51°15.678 2°49.378 20.5833 0.259276 1.584355 0.810283
2009-06-19 06:51:04 51°15.682 2°49.355 20.5775 0.259379 1.58502 0.810283
2009-06-19 06:51:09 51°15.685 2°49.333 20.5808 0.259379 1.58502 0.810283
2009-06-19 06:51:15 51°15.689 2°49.306 20.5858 0.259276 1.584355 0.810283
2009-06-19 06:51:19 51°15.692 2°49.287 20.5788 0.259276 1.584355 0.810283
2009-06-19 06:51:24 51°15.695 2°49.265 20.5795 0.259379 1.585081 0.810283
2009-06-19 06:51:28 51°15.698 2°49.247 20.5814 0.259379 1.585081 0.810283
2009-06-19 06:51:34 51°15.701 2°49.22 20.5898 0.259379 1.585081 0.810283
2009-06-19 06:51:40 51°15.705 2°49.193 20.589 0.259276 1.584447 0.810283
2009-06-19 06:51:44 51°15.707 2°49.175 20.582 0.259276 1.584447 0.810283
2009-06-19 06:51:49 51°15.71 2°49.153 20.5795 0.259379 1.585112 0.810283
2009-06-19 06:51:54 51°15.713 2°49.13 20.5955 0.259379 1.585112 0.810283
2009-06-19 06:51:59 51°15.716 2°49.107 20.5877 0.259276 1.584478 0.810283
2009-06-19 06:52:04 51°15.719 2°49.085 20.5917 0.259379 1.585173 0.810283
2009-06-19 06:52:09 51°15.722 2°49.063 20.5877 0.259379 1.585142 0.810283
2009-06-19 06:52:15 51°15.725 2°49.036 20.5879 0.259379 1.585142 0.810283
2009-06-19 06:52:19 51°15.728 2°49.018 20.5937 0.259379 1.585142 0.810283
2009-06-19 06:52:24 51°15.731 2°48.995 20.5862 0.259379 1.585173 0.810283
2009-06-19 06:52:29 51°15.734 2°48.973 20.5928 0.259379 1.585173 0.810283
2009-06-19 06:52:35 51°15.738 2°48.946 20.583 0.259379 1.585204 0.810283
2009-06-19 06:52:39 51°15.74 2°48.928 20.5979 0.259379 1.585204 0.810283
2009-06-19 06:52:44 51°15.743 2°48.906 20.5925 0.259379 1.585204 0.810283
2009-06-19 06:52:50 51°15.746 2°48.879 20.6021 0.259276 1.584539 0.810283
2009-06-19 06:52:55 51°15.749 2°48.856 20.5915 0.259379 1.585235 0.810283
2009-06-19 06:52:59 51°15.752 2°48.839 20.5978 0.259379 1.585235 0.810283
2009-06-19 06:53:04 51°15.755 2°48.816 20.6028 0.259379 1.585235 0.810283
2009-06-19 06:53:09 51°15.758 2°48.794 20.6047 0.259379 1.585265 0.810283
2009-06-19 06:53:15 51°15.762 2°48.767 20.6034 0.259379 1.585265 0.810283
2009-06-19 06:53:20 51°15.765 2°48.744 20.5969 0.259379 1.585265 0.810283
2009-06-19 06:53:24 51°15.767 2°48.727 20.6087 0.259379 1.585296 0.810283
2009-06-19 06:53:29 51°15.77 2°48.705 20.5955 0.259276 1.584662 0.810283
2009-06-19 06:53:35 51°15.773 2°48.679 20.6142 0.259379 1.585327 0.810283
2009-06-19 06:53:39 51°15.775 2°48.661 20.6123 0.259379 1.585327 0.810283
2009-06-19 06:53:44 51°15.778 2°48.639 20.6087 0.259379 1.585327 0.810283
2009-06-19 06:53:48 51°15.781 2°48.621 20.6096 0.259379 1.585327 0.775459
2009-06-19 06:53:54 51°15.785 2°48.595 20.6109 0.259379 1.585357 0.810283
2009-06-19 06:54:00 51°15.789 2°48.568 20.6048 0.259276 1.584693 0.810283
2009-06-19 06:54:04 51°15.791 2°48.55 20.6043 0.259379 1.585357 0.810283
2009-06-19 06:54:09 51°15.794 2°48.528 20.6156 0.259379 1.585388 0.810283
2009-06-19 06:54:15 51°15.798 2°48.501 20.6039 0.259379 1.585388 0.810283
2009-06-19 06:54:19 51°15.801 2°48.484 20.6149 0.259379 1.585357 0.810283
2009-06-19 06:54:24 51°15.804 2°48.461 20.612 0.259379 1.585388 0.810283
2009-06-19 06:54:29 51°15.807 2°48.439 20.6118 0.259379 1.585388 0.810283
2009-06-19 06:54:35 51°15.811 2°48.413 20.6158 0.259379 1.585388 0.810283
2009-06-19 06:54:39 51°15.814 2°48.395 20.6085 0.259379 1.585419 0.810283
2009-06-19 06:54:44 51°15.817 2°48.373 20.6226 0.259379 1.585419 0.810283
2009-06-19 06:54:49 51°15.821 2°48.35 20.6165 0.259379 1.585419 0.810283
2009-06-19 06:54:55 51°15.825 2°48.324 20.6156 0.259379 1.585419 0.810283
2009-06-19 06:54:59 51°15.828 2°48.306 20.6118 0.259379 1.58545 0.810283
2009-06-19 06:55:04 51°15.831 2°48.283 20.6131 0.259379 1.58545 0.810283
2009-06-19 06:55:09 51°15.835 2°48.26 20.6156 0.259379 1.58548 0.810283
2009-06-19 06:55:15 51°15.839 2°48.233 20.6228 0.259379 1.58548 0.810283
2009-06-19 06:55:19 51°15.842 2°48.215 20.626 0.259379 1.58548 0.810283
2009-06-19 06:55:24 51°15.845 2°48.192 20.6212 0.259379 1.585511 0.810283
2009-06-19 06:55:29 51°15.849 2°48.17 20.6223 0.259379 1.585511 0.810283
2009-06-19 06:55:35 51°15.853 2°48.143 20.625 0.259379 1.585511 0.810283
2009-06-19 06:55:39 51°15.856 2°48.125 20.6205 0.259379 1.585542 0.810283
2009-06-19 06:55:44 51°15.859 2°48.102 20.6238 0.259379 1.585542 0.810283
2009-06-19 06:55:48 51°15.861 2°48.083 20.6284 0.259379 1.585572 0.810283
2009-06-19 06:55:55 51°15.866 2°48.051 20.6275 0.259379 1.585572 0.810283
2009-06-19 06:55:59 51°15.869 2°48.033 20.6272 0.259379 1.585572 0.810283
2009-06-19 06:56:04 51°15.872 2°48.01 20.6322 0.259379 1.585603 0.810283
2009-06-19 06:56:09 51°15.876 2°47.988 20.6288 0.259379 1.585603 0.810283
2009-06-19 06:56:14 51°15.879 2°47.965 20.6313 0.259379 1.585603 0.810283
2009-06-19 06:56:20 51°15.884 2°47.938 20.6216 0.259379 1.585603 0.810283
2009-06-19 06:56:24 51°15.886 2°47.92 20.6349 0.259379 1.585634 0.810283
2009-06-19 06:56:29 51°15.89 2°47.898 20.6269 0.259482 1.586299 0.810283
2009-06-19 06:56:35 51°15.894 2°47.87 20.6386 0.259379 1.585634 0.810283
2009-06-19 06:56:39 51°15.897 2°47.852 20.6345 0.259379 1.585634 0.810283
2009-06-19 06:56:44 51°15.9 2°47.829 20.6309 0.259379 1.585634 0.810283
2009-06-19 06:56:49 51°15.903 2°47.807 20.6348 0.259379 1.585665 0.810283
2009-06-19 06:56:55 51°15.907 2°47.779 20.6282 0.259482 1.58636 0.810283
2009-06-19 06:56:59 51°15.909 2°47.762 20.6422 0.259379 1.585695 0.810283
2009-06-19 06:57:04 51°15.913 2°47.739 20.6353 0.259379 1.585695 0.810283
2009-06-19 06:57:10 51°15.917 2°47.712 20.6344 0.259482 1.586391 0.810283
2009-06-19 06:57:15 51°15.92 2°47.69 20.6392 0.259482 1.586391 0.810283
2009-06-19 06:57:19 51°15.922 2°47.673 20.6471 0.259379 1.585726 0.810283
2009-06-19 06:57:24 51°15.926 2°47.65 20.6331 0.259379 1.585726 0.810283
2009-06-19 06:57:29 51°15.929 2°47.628 20.6432 0.259379 1.585726 0.810283
2009-06-19 06:57:35 51°15.933 2°47.601 20.648 0.259379 1.585757 0.775459
2009-06-19 06:57:39 51°15.935 2°47.583 20.6455 0.259379 1.585757 0.810283
2009-06-19 06:57:44 51°15.939 2°47.561 20.6388 0.259379 1.585757 0.810283
2009-06-19 06:57:49 51°15.942 2°47.539 20.6466 0.259379 1.585757 0.810283
2009-06-19 06:57:55 51°15.945 2°47.512 20.6497 0.259482 1.586421 0.810283
2009-06-19 06:58:00 51°15.949 2°47.49 20.6402 0.259379 1.585788 0.810283
2009-06-19 06:58:04 51°15.951 2°47.472 20.6586 0.259379 1.585788 0.810283
2009-06-19 06:58:09 51°15.955 2°47.45 20.6398 0.259482 1.586452 0.810283
2009-06-19 06:58:15 51°15.958 2°47.424 20.6523 0.259379 1.585818 0.810283
2009-06-19 06:58:20 51°15.961 2°47.402 20.651 0.259379 1.585818 0.810283
2009-06-19 06:58:24 51°15.964 2°47.385 20.6454 0.259379 1.585818 0.775459
2009-06-19 06:58:29 51°15.968 2°47.363 20.6554 0.259482 1.586483 0.810283
2009-06-19 06:58:35 51°15.972 2°47.336 20.6536 0.259379 1.585818 0.775459
2009-06-19 06:58:40 51°15.976 2°47.314 20.6512 0.259379 1.585818 0.810283
2009-06-19 06:58:44 51°15.978 2°47.296 20.6554 0.259379 1.585818 0.810283
2009-06-19 06:58:49 51°15.982 2°47.274 20.6549 0.259379 1.585849 0.810283
2009-06-19 06:58:55 51°15.986 2°47.248 20.6535 0.259379 1.58588 0.775459
2009-06-19 06:58:59 51°15.989 2°47.23 20.6534 0.259379 1.58588 0.810283
2009-06-19 06:59:04 51°15.993 2°47.208 20.6532 0.259379 1.58588 0.810283
2009-06-19 06:59:09 51°15.996 2°47.186 20.66 0.259379 1.585941 0.810283
2009-06-19 06:59:15 51°16.001 2°47.159 20.6534 0.259379 1.585941 0.810283
2009-06-19 06:59:19 51°16.004 2°47.142 20.656 0.259379 1.585941 0.810283
2009-06-19 06:59:24 51°16.007 2°47.12 20.6648 0.259379 1.585941 0.775459
2009-06-19 06:59:29 51°16.011 2°47.098 20.6631 0.259379 1.585941 0.810283
2009-06-19 06:59:35 51°16.016 2°47.071 20.6628 0.259379 1.585941 0.810283
2009-06-19 06:59:39 51°16.019 2°47.054 20.6552 0.259379 1.585972 0.810283
2009-06-19 06:59:44 51°16.023 2°47.031 20.6651 0.259379 1.585972 0.810283
2009-06-19 06:59:49 51°16.028 2°47.009 20.6635 0.259379 1.585972 0.810283
2009-06-19 06:59:55 51°16.033 2°46.983 20.6622 0.259379 1.586003 0.810283
2009-06-19 07:00:00 51°16.038 2°46.96 20.669 0.259379 1.586003 0.810283
2009-06-19 07:00:04 51°16.041 2°46.942 20.6644 0.259482 1.586668 0.810283
2009-06-19 07:00:09 51°16.046 2°46.921 20.6715 0.259379 1.586003 0.810283
2009-06-19 07:00:15 51°16.051 2°46.894 20.6693 0.259379 1.586034 0.810283
2009-06-19 07:00:19 51°16.054 2°46.876 20.6772 0.259379 1.586034 0.810283
2009-06-19 07:00:24 51°16.059 2°46.854 20.6609 0.259379 1.586034 0.810283
2009-06-19 07:00:28 51°16.062 2°46.836 20.6743 0.259379 1.586064 0.775459
2009-06-19 07:00:34 51°16.067 2°46.809 20.6645 0.259379 1.586064 0.775459
2009-06-19 07:00:40 51°16.073 2°46.783 20.6768 0.259379 1.586095 0.810283
2009-06-19 07:00:44 51°16.076 2°46.765 20.6707 0.259379 1.586095 0.810283
2009-06-19 07:00:49 51°16.08 2°46.743 20.6818 0.259379 1.586126 0.775459
2009-06-19 07:00:55 51°16.086 2°46.717 20.6676 0.259379 1.586095 0.810283
2009-06-19 07:01:00 51°16.09 2°46.695 20.6807 0.259482 1.586791 0.775459
2009-06-19 07:01:04 51°16.094 2°46.677 20.6738 0.259379 1.586126 0.810283
2009-06-19 07:01:09 51°16.098 2°46.656 20.6704 0.259379 1.586126 0.810283
2009-06-19 07:01:15 51°16.103 2°46.629 20.6864 0.259379 1.586126 0.810283
2009-06-19 07:01:19 51°16.107 2°46.612 20.6758 0.259482 1.586821 0.775459
2009-06-19 07:01:24 51°16.111 2°46.591 20.6882 0.259379 1.586157 0.775459
2009-06-19 07:01:28 51°16.114 2°46.574 20.68 0.259379 1.586157 0.775459
2009-06-19 07:01:35 51°16.119 2°46.543 20.6815 0.259379 1.586157 0.775459
2009-06-19 07:01:39 51°16.122 2°46.526 20.6748 0.259379 1.586187 0.810283
2009-06-19 07:01:44 51°16.126 2°46.504 20.6918 0.259379 1.586157 0.775459
2009-06-19 07:01:49 51°16.13 2°46.482 20.6876 0.259379 1.586157 0.775459
2009-06-19 07:01:55 51°16.135 2°46.456 20.694 0.259379 1.586187 0.810283
2009-06-19 07:01:59 51°16.138 2°46.439 20.6859 0.259379 1.586187 0.810283
2009-06-19 07:02:04 51°16.142 2°46.417 20.6767 0.259482 1.586852 0.775459
2009-06-19 07:02:09 51°16.146 2°46.395 20.6915 0.259379 1.586249 0.775459
2009-06-19 07:02:15 51°16.151 2°46.368 20.6822 0.259379 1.586249 0.775459
2009-06-19 07:02:19 51°16.154 2°46.351 20.6792 0.259379 1.586249 0.775459
2009-06-19 07:02:24 51°16.157 2°46.329 20.6885 0.259379 1.586249 0.775459
2009-06-19 07:02:29 51°16.162 2°46.307 20.6955 0.259379 1.586249 0.775459
2009-06-19 07:02:35 51°16.166 2°46.281 20.6845 0.259379 1.586249 0.775459
2009-06-19 07:02:40 51°16.17 2°46.26 20.6995 0.259379 1.58628 0.775459
2009-06-19 07:02:44 51°16.174 2°46.243 20.6902 0.259379 1.58628 0.775459
2009-06-19 07:02:49 51°16.179 2°46.222 20.7014 0.259482 1.586944 0.810283
2009-06-19 07:02:55 51°16.185 2°46.197 20.6959 0.259379 1.58628 0.775459
2009-06-19 07:03:00 51°16.19 2°46.175 20.6913 0.259379 1.58631 0.775459
2009-06-19 07:03:04 51°16.195 2°46.158 20.7026 0.259379 1.58631 0.775459
2009-06-19 07:03:09 51°16.2 2°46.137 20.7005 0.259379 1.58631 0.810283
2009-06-19 07:03:15 51°16.207 2°46.112 20.7036 0.259379 1.58631 0.810283
2009-06-19 07:03:19 51°16.212 2°46.095 20.6918 0.259379 1.58631 0.775459
2009-06-19 07:03:24 51°16.218 2°46.074 20.7004 0.259379 1.586372 0.775459
2009-06-19 07:03:29 51°16.224 2°46.053 20.705 0.259379 1.586372 0.775459
2009-06-19 07:03:35 51°16.232 2°46.028 20.6955 0.259482 1.587037 0.775459
2009-06-19 07:03:39 51°16.237 2°46.012 20.7031 0.259379 1.586403 0.775459
2009-06-19 07:03:44 51°16.243 2°45.991 20.6974 0.259379 1.586433 0.775459
2009-06-19 07:03:49 51°16.249 2°45.97 20.7104 0.259379 1.586433 0.775459
2009-06-19 07:03:55 51°16.257 2°45.946 20.712 0.259379 1.586433 0.810283
2009-06-19 07:03:59 51°16.262 2°45.929 20.6991 0.259379 1.586433 0.775459
2009-06-19 07:04:04 51°16.269 2°45.909 20.7131 0.259379 1.586495 0.775459
2009-06-19 07:04:09 51°16.275 2°45.888 20.705 0.259379 1.586526 0.775459
2009-06-19 07:04:15 51°16.283 2°45.863 20.7076 0.259379 1.586526 0.775459
2009-06-19 07:04:20 51°16.289 2°45.843 20.7122 0.259379 1.586495 0.775459
2009-06-19 07:04:24 51°16.294 2°45.826 20.703 0.259379 1.586495 0.775459
2009-06-19 07:04:29 51°16.301 2°45.805 20.72 0.259379 1.586495 0.775459
2009-06-19 07:04:35 51°16.308 2°45.781 20.7074 0.259379 1.586526 0.775459
2009-06-19 07:04:39 51°16.313 2°45.764 20.7125 0.259379 1.586526 0.775459
2009-06-19 07:04:44 51°16.32 2°45.744 20.7038 0.259379 1.586526 0.775459
2009-06-19 07:04:49 51°16.326 2°45.724 20.7176 0.259379 1.586556 0.775459
2009-06-19 07:04:54 51°16.334 2°45.704 20.7107 0.259379 1.586526 0.775459
2009-06-19 07:04:59 51°16.341 2°45.684 20.7151 0.259379 1.586526 0.775459
2009-06-19 07:05:04 51°16.349 2°45.664 20.7113 0.259379 1.586556 0.775459
2009-06-19 07:05:09 51°16.357 2°45.645 20.7182 0.259379 1.586556 0.775459
2009-06-19 07:05:14 51°16.365 2°45.626 20.7115 0.259379 1.586556 0.775459
2009-06-19 07:05:20 51°16.376 2°45.603 20.7249 0.259379 1.586556 0.775459
2009-06-19 07:05:24 51°16.382 2°45.588 20.7136 0.259379 1.586556 0.775459
2009-06-19 07:05:29 51°16.391 2°45.569 20.7154 0.259379 1.586587 0.775459
2009-06-19 07:05:35 51°16.401 2°45.546 20.7296 0.259379 1.586618 0.775459
2009-06-19 07:05:40 51°16.41 2°45.528 20.714 0.259379 1.586618 0.775459
2009-06-19 07:05:44 51°16.416 2°45.513 20.7203 0.259379 1.586618 0.775459
2009-06-19 07:05:49 51°16.425 2°45.494 20.728 0.259379 1.586649 0.775459
2009-06-19 07:05:55 51°16.435 2°45.471 20.7286 0.259379 1.58668 0.775459
2009-06-19 07:05:59 51°16.442 2°45.456 20.7218 0.259379 1.58668 0.775459
2009-06-19 07:06:04 51°16.45 2°45.438 20.7289 0.259379 1.58668 0.775459
2009-06-19 07:06:10 51°16.46 2°45.415 20.7303 0.259379 1.58668 0.775459
2009-06-19 07:06:15 51°16.469 2°45.397 20.7199 0.259379 1.58668 0.775459
2009-06-19 07:06:19 51°16.476 2°45.382 20.7242 0.259276 1.586045 0.775459
2009-06-19 07:06:24 51°16.485 2°45.363 20.7247 0.259379 1.58671 0.775459
2009-06-19 07:06:30 51°16.495 2°45.341 20.7413 0.259379 1.58671 0.775459
2009-06-19 07:06:35 51°16.504 2°45.323 20.7258 0.259482 1.587437 0.775459
2009-06-19 07:06:40 51°16.512 2°45.306 20.7399 0.259379 1.586741 0.775459
2009-06-19 07:06:44 51°16.519 2°45.291 20.7264 0.259379 1.586741 0.775459
2009-06-19 07:06:49 51°16.528 2°45.273 20.74 0.259379 1.586772 0.775459
2009-06-19 07:06:55 51°16.538 2°45.25 20.735 0.259379 1.586772 0.775459
2009-06-19 07:07:00 51°16.547 2°45.232 20.7427 0.259379 1.586772 0.775459
2009-06-19 07:07:04 51°16.554 2°45.216 20.7296 0.259379 1.586772 0.810283
2009-06-19 07:07:09 51°16.562 2°45.198 20.7361 0.259379 1.586803 0.775459
2009-06-19 07:07:15 51°16.572 2°45.175 20.736 0.259379 1.586833 0.775459
2009-06-19 07:07:19 51°16.579 2°45.161 20.7473 0.259379 1.586833 0.775459
2009-06-19 07:07:24 51°16.588 2°45.143 20.7394 0.259379 1.586803 0.775459
2009-06-19 07:07:28 51°16.595 2°45.128 20.735 0.259379 1.586803 0.775459
2009-06-19 07:07:34 51°16.605 2°45.106 20.745 0.259379 1.586833 0.775459
2009-06-19 07:07:40 51°16.615 2°45.084 20.7491 0.259276 1.586168 0.775459
2009-06-19 07:07:44 51°16.622 2°45.069 20.7395 0.259379 1.586833 0.775459
2009-06-19 07:07:49 51°16.63 2°45.051 20.7529 0.259379 1.586833 0.775459
2009-06-19 07:07:55 51°16.64 2°45.03 20.755 0.259379 1.586864 0.775459
2009-06-19 07:07:59 51°16.647 2°45.015 20.75 0.259379 1.586895 0.775459
2009-06-19 07:08:04 51°16.655 2°44.997 20.7429 0.259379 1.586864 0.775459
2009-06-19 07:08:09 51°16.663 2°44.979 20.7554 0.259276 1.58623 0.810283
2009-06-19 07:08:15 51°16.674 2°44.956 20.749 0.259276 1.58623 0.810283
2009-06-19 07:08:19 51°16.68 2°44.941 20.7417 0.259379 1.586895 0.775459
2009-06-19 07:08:24 51°16.688 2°44.922 20.7567 0.259379 1.586926 0.775459
2009-06-19 07:08:29 51°16.697 2°44.903 20.7474 0.259379 1.586926 0.775459
2009-06-19 07:08:35 51°16.707 2°44.881 20.7525 0.259379 1.586926 0.775459
2009-06-19 07:08:39 51°16.713 2°44.866 20.7538 0.259379 1.586926 0.775459
2009-06-19 07:08:44 51°16.722 2°44.847 20.7557 0.259379 1.586926 0.775459
2009-06-19 07:08:49 51°16.73 2°44.828 20.7597 0.259379 1.586957 0.775459
2009-06-19 07:08:55 51°16.74 2°44.805 20.7486 0.259276 1.586291 0.775459
2009-06-19 07:09:00 51°16.749 2°44.787 20.7508 0.259379 1.587018 0.775459
2009-06-19 07:09:04 51°16.756 2°44.772 20.7525 0.259379 1.586987 0.775459
2009-06-19 07:09:09 51°16.764 2°44.753 20.7595 0.259379 1.587049 0.775459
2009-06-19 07:09:15 51°16.774 2°44.73 20.7593 0.259379 1.587049 0.775459
2009-06-19 07:09:19 51°16.781 2°44.715 20.7562 0.259276 1.586384 0.775459
2009-06-19 07:09:24 51°16.789 2°44.696 20.7612 0.259379 1.587018 0.775459
2009-06-19 07:09:29 51°16.797 2°44.677 20.7482 0.259379 1.587018 0.775459
2009-06-19 07:09:35 51°16.807 2°44.653 20.7703 0.259276 1.586384 0.775459
2009-06-19 07:09:40 51°16.815 2°44.635 20.7644 0.259379 1.587049 0.775459
2009-06-19 07:09:44 51°16.822 2°44.62 20.7545 0.259379 1.587049 0.775459
2009-06-19 07:09:49 51°16.831 2°44.602 20.7695 0.259276 1.586384 0.775459
2009-06-19 07:09:55 51°16.841 2°44.58 20.7697 0.259379 1.587049 0.775459
2009-06-19 07:10:00 51°16.85 2°44.561 20.7692 0.259379 1.587049 0.775459
2009-06-19 07:10:04 51°16.857 2°44.547 20.7665 0.259379 1.587049 0.775459
2009-06-19 07:10:09 51°16.866 2°44.528 20.7602 0.259379 1.58708 0.810283
2009-06-19 07:10:15 51°16.876 2°44.506 20.7645 0.259379 1.58708 0.810283
2009-06-19 07:10:19 51°16.884 2°44.492 20.7722 0.259379 1.58708 0.775459
2009-06-19 07:10:24 51°16.893 2°44.473 20.7748 0.259276 1.586445 0.775459
2009-06-19 07:10:29 51°16.902 2°44.455 20.7651 0.259276 1.586476 0.775459
2009-06-19 07:10:35 51°16.912 2°44.434 20.7802 0.259276 1.586476 0.740634
2009-06-19 07:10:39 51°16.92 2°44.42 20.7693 0.259379 1.587141 0.775459
2009-06-19 07:10:44 51°16.929 2°44.402 20.7681 0.259379 1.587141 0.775459
2009-06-19 07:10:50 51°16.94 2°44.38 20.778 0.259276 1.586476 0.775459
2009-06-19 07:10:55 51°16.949 2°44.362 20.7764 0.259276 1.586507 0.775459
2009-06-19 07:10:59 51°16.956 2°44.347 20.7778 0.259379 1.587172 0.775459
2009-06-19 07:11:04 51°16.965 2°44.329 20.7712 0.259276 1.586507 0.775459
2009-06-19 07:11:09 51°16.974 2°44.311 20.7815 0.259379 1.587172 0.775459
2009-06-19 07:11:15 51°16.985 2°44.289 20.7713 0.259276 1.586507 0.775459
2009-06-19 07:11:19 51°16.993 2°44.274 20.7777 0.259276 1.586507 0.775459
2009-06-19 07:11:24 51°17.002 2°44.256 20.7809 0.259379 1.587203 0.775459
2009-06-19 07:11:29 51°17.011 2°44.237 20.7788 0.259276 1.586538 0.775459
2009-06-19 07:11:35 51°17.022 2°44.215 20.7749 0.259276 1.586538 0.775459
2009-06-19 07:11:40 51°17.031 2°44.196 20.7858 0.259276 1.586568 0.775459
2009-06-19 07:11:44 51°17.039 2°44.182 20.7723 0.259276 1.586568 0.775459
2009-06-19 07:11:49 51°17.048 2°44.164 20.7785 0.259276 1.586599 0.775459
2009-06-19 07:11:55 51°17.059 2°44.143 20.7783 0.259379 1.587295 0.775459
2009-06-19 07:12:00 51°17.068 2°44.124 20.7921 0.259276 1.586599 0.775459
2009-06-19 07:12:04 51°17.075 2°44.11 20.7791 0.259276 1.586661 0.775459
2009-06-19 07:12:09 51°17.084 2°44.092 20.7852 0.259276 1.58663 0.775459
2009-06-19 07:12:15 51°17.095 2°44.07 20.7862 0.259276 1.58663 0.775459
2009-06-19 07:12:20 51°17.104 2°44.052 20.7943 0.259276 1.58663 0.740634
2009-06-19 07:12:24 51°17.112 2°44.038 20.7819 0.259276 1.586599 0.775459
2009-06-19 07:12:29 51°17.121 2°44.02 20.7944 0.259276 1.586599 0.775459
2009-06-19 07:12:35 51°17.132 2°43.997 20.7882 0.259276 1.586661 0.775459
2009-06-19 07:12:39 51°17.14 2°43.983 20.7888 0.259173 1.585965 0.775459
2009-06-19 07:12:44 51°17.149 2°43.964 20.7901 0.259276 1.58663 0.775459
2009-06-19 07:12:48 51°17.156 2°43.949 20.7943 0.259276 1.58663 0.775459
2009-06-19 07:12:54 51°17.167 2°43.928 20.7998 0.259276 1.586661 0.775459
2009-06-19 07:12:59 51°17.177 2°43.91 20.7891 0.259276 1.586661 0.775459
2009-06-19 07:13:04 51°17.186 2°43.892 20.8021 0.259276 1.586692 0.775459
2009-06-19 07:13:09 51°17.195 2°43.875 20.7992 0.259276 1.586692 0.775459
2009-06-19 07:13:15 51°17.206 2°43.854 20.7951 0.259276 1.586692 0.775459
2009-06-19 07:13:19 51°17.213 2°43.839 20.8061 0.259276 1.586692 0.775459
2009-06-19 07:13:24 51°17.223 2°43.822 20.7929 0.259173 1.586057 0.775459
2009-06-19 07:13:29 51°17.232 2°43.805 20.8086 0.259276 1.586722 0.775459
2009-06-19 07:13:35 51°17.243 2°43.784 20.7961 0.259276 1.586753 0.775459
2009-06-19 07:13:39 51°17.251 2°43.771 20.8068 0.259276 1.586722 0.775459
2009-06-19 07:13:44 51°17.261 2°43.753 20.8049 0.259276 1.586722 0.775459
2009-06-19 07:13:49 51°17.27 2°43.736 20.8064 0.259276 1.586722 0.775459
2009-06-19 07:13:55 51°17.281 2°43.715 20.8074 0.259173 1.586057 0.775459
2009-06-19 07:14:00 51°17.291 2°43.697 20.7976 0.259173 1.586057 0.775459
2009-06-19 07:14:04 51°17.299 2°43.682 20.8057 0.259276 1.586722 0.775459
2009-06-19 07:14:09 51°17.308 2°43.664 20.8088 0.259173 1.586057 0.775459
2009-06-19 07:14:15 51°17.319 2°43.643 20.8095 0.259276 1.586722 0.775459
2009-06-19 07:14:19 51°17.327 2°43.628 20.8 0.259276 1.586722 0.775459
2009-06-19 07:14:24 51°17.336 2°43.61 20.8157 0.259276 1.586784 0.775459
2009-06-19 07:14:28 51°17.343 2°43.596 20.8125 0.259173 1.586149 0.775459
2009-06-19 07:14:34 51°17.354 2°43.575 20.8015 0.259276 1.586815 0.775459
2009-06-19 07:14:40 51°17.365 2°43.553 20.8118 0.259173 1.586119 0.775459
2009-06-19 07:14:44 51°17.373 2°43.539 20.817 0.259173 1.586149 0.775459
2009-06-19 07:14:49 51°17.382 2°43.522 20.8159 0.259173 1.586149 0.775459
2009-06-19 07:14:55 51°17.393 2°43.5 20.8181 0.259173 1.586119 0.775459
2009-06-19 07:14:59 51°17.4 2°43.486 20.8052 0.259173 1.586119 0.740634
2009-06-19 07:15:04 51°17.409 2°43.468 20.8176 0.259173 1.586149 0.775459
2009-06-19 07:15:09 51°17.418 2°43.45 20.8134 0.259173 1.586149 0.775459
2009-06-19 07:15:15 51°17.429 2°43.429 20.8218 0.259173 1.586149 0.775459
2009-06-19 07:15:19 51°17.436 2°43.414 20.8203 0.259276 1.586815 0.740634
2009-06-19 07:15:24 51°17.446 2°43.396 20.8152 0.259173 1.58618 0.775459
2009-06-19 07:15:29 51°17.455 2°43.379 20.8189 0.259173 1.58618 0.740634
2009-06-19 07:15:35 51°17.466 2°43.357 20.8152 0.259173 1.58618 0.775459
2009-06-19 07:15:39 51°17.473 2°43.344 20.8085 0.259173 1.586211 0.775459
2009-06-19 07:15:44 51°17.482 2°43.326 20.8198 0.259173 1.586211 0.775459
2009-06-19 07:15:49 51°17.492 2°43.309 20.824 0.259173 1.586211 0.775459
2009-06-19 07:15:55 51°17.502 2°43.288 20.8198 0.259173 1.586211 0.775459
2009-06-19 07:16:00 51°17.511 2°43.27 20.8135 0.259173 1.586242 0.775459
2009-06-19 07:16:04 51°17.518 2°43.256 20.8257 0.259173 1.586242 0.775459
2009-06-19 07:16:09 51°17.527 2°43.239 20.8157 0.259173 1.586242 0.775459
2009-06-19 07:16:15 51°17.538 2°43.217 20.8307 0.259173 1.586242 0.775459
2009-06-19 07:16:19 51°17.546 2°43.203 20.8233 0.259173 1.586242 0.775459
2009-06-19 07:16:24 51°17.555 2°43.185 20.8191 0.259173 1.586242 0.775459
2009-06-19 07:16:29 51°17.564 2°43.168 20.83 0.259173 1.586242 0.775459
2009-06-19 07:16:35 51°17.575 2°43.147 20.8337 0.259173 1.586242 0.775459
2009-06-19 07:16:40 51°17.584 2°43.129 20.8265 0.259173 1.586273 0.775459
2009-06-19 07:16:44 51°17.591 2°43.116 20.8408 0.259173 1.586273 0.775459
2009-06-19 07:16:49 51°17.601 2°43.099 20.8229 0.259276 1.587 0.740634
2009-06-19 07:16:55 51°17.612 2°43.08 20.8471 0.259173 1.586365 0.775459
2009-06-19 07:17:00 51°17.62 2°43.063 20.8323 0.25907 1.58573 0.775459
2009-06-19 07:17:04 51°17.627 2°43.051 20.8422 0.259173 1.586427 0.775459
2009-06-19 07:17:09 51°17.636 2°43.035 20.8431 0.259173 1.586396 0.740634
2009-06-19 07:17:15 51°17.647 2°43.015 20.8294 0.259173 1.586396 0.740634
2009-06-19 07:17:19 51°17.654 2°43.003 20.8498 0.25907 1.58573 0.70581
2009-06-19 07:17:24 51°17.664 2°42.987 20.833 0.259173 1.586365 0.740634
2009-06-19 07:17:29 51°17.673 2°42.97 20.8409 0.25907 1.5857 0.775459
2009-06-19 07:17:35 51°17.684 2°42.95 20.8361 0.259173 1.586365 0.810283
2009-06-19 07:17:39 51°17.691 2°42.937 20.8511 0.25907 1.5857 0.775459
2009-06-19 07:17:44 51°17.701 2°42.92 20.8466 0.25907 1.5857 0.775459
2009-06-19 07:17:49 51°17.71 2°42.903 20.8432 0.25907 1.585669 0.775459
2009-06-19 07:17:55 51°17.721 2°42.882 20.8433 0.259173 1.586334 0.775459
2009-06-19 07:18:00 51°17.731 2°42.865 20.8386 0.25907 1.585638 0.775459
2009-06-19 07:18:04 51°17.738 2°42.851 20.8506 0.25907 1.585669 0.775459
2009-06-19 07:18:09 51°17.748 2°42.833 20.8477 0.25907 1.585669 0.775459
2009-06-19 07:18:15 51°17.76 2°42.812 20.8516 0.259173 1.586396 0.775459
2009-06-19 07:18:20 51°17.769 2°42.795 20.8437 0.259173 1.586396 0.775459
2009-06-19 07:18:24 51°17.777 2°42.782 20.8573 0.25907 1.5857 0.740634
2009-06-19 07:18:29 51°17.786 2°42.764 20.8438 0.25907 1.585761 0.740634
2009-06-19 07:18:35 51°17.797 2°42.744 20.8557 0.25907 1.58573 0.775459
2009-06-19 07:18:39 51°17.805 2°42.729 20.852 0.25907 1.58573 0.740634
2009-06-19 07:18:44 51°17.814 2°42.711 20.8513 0.25907 1.58573 0.740634
2009-06-19 07:18:48 51°17.822 2°42.697 20.8459 0.25907 1.58573 0.740634
2009-06-19 07:18:54 51°17.833 2°42.676 20.8643 0.259173 1.586427 0.740634
2009-06-19 07:19:00 51°17.845 2°42.655 20.8473 0.258967 1.585065 0.740634
2009-06-19 07:19:04 51°17.852 2°42.641 20.85 0.259173 1.586396 0.775459
2009-06-19 07:19:09 51°17.861 2°42.623 20.8577 0.25907 1.58573 0.740634
2009-06-19 07:19:15 51°17.873 2°42.602 20.8522 0.25907 1.58573 0.740634
2009-06-19 07:19:20 51°17.882 2°42.584 20.8622 0.25907 1.58573 0.775459
2009-06-19 07:19:24 51°17.89 2°42.569 20.8613 0.25907 1.5857 0.775459
2009-06-19 07:19:30 51°17.901 2°42.548 20.8575 0.25907 1.58573 0.740634
2009-06-19 07:19:35 51°17.911 2°42.53 20.8525 0.25907 1.585761 0.775459
2009-06-19 07:19:39 51°17.918 2°42.516 20.8549 0.25907 1.585761 0.740634
2009-06-19 07:19:44 51°17.928 2°42.498 20.8646 0.25907 1.585761 0.775459
2009-06-19 07:19:49 51°17.937 2°42.479 20.856 0.25907 1.585761 0.775459
2009-06-19 07:19:55 51°17.948 2°42.457 20.8677 0.25907 1.585761 0.775459
2009-06-19 07:19:59 51°17.956 2°42.442 20.858 0.25907 1.585761 0.740634
2009-06-19 07:20:04 51°17.965 2°42.423 20.8608 0.25907 1.585761 0.740634
2009-06-19 07:20:10 51°17.976 2°42.4 20.8654 0.25907 1.585761 0.775459
2009-06-19 07:20:15 51°17.986 2°42.381 20.866 0.25907 1.585761 0.740634
2009-06-19 07:20:19 51°17.993 2°42.366 20.8697 0.25907 1.585761 0.740634
2009-06-19 07:20:24 51°18.003 2°42.348 20.8613 0.25907 1.585792 0.740634
2009-06-19 07:20:29 51°18.012 2°42.33 20.8737 0.259173 1.586488 0.740634
2009-06-19 07:20:35 51°18.023 2°42.308 20.8682 0.25907 1.585823 0.775459
2009-06-19 07:20:40 51°18.032 2°42.29 20.8643 0.25907 1.585823 0.775459
2009-06-19 07:20:44 51°18.039 2°42.276 20.8773 0.25907 1.585823 0.775459
2009-06-19 07:20:49 51°18.048 2°42.257 20.8628 0.25907 1.585854 0.740634
2009-06-19 07:20:55 51°18.059 2°42.236 20.8738 0.25907 1.585854 0.775459
2009-06-19 07:21:00 51°18.068 2°42.218 20.8755 0.25907 1.585823 0.775459
2009-06-19 07:21:04 51°18.075 2°42.203 20.8786 0.25907 1.585823 0.775459
2009-06-19 07:21:09 51°18.084 2°42.185 20.8751 0.25907 1.585823 0.775459
2009-06-19 07:21:15 51°18.095 2°42.162 20.8708 0.25907 1.585823 0.775459
2009-06-19 07:21:20 51°18.104 2°42.143 20.8675 0.25907 1.585854 0.775459
2009-06-19 07:21:24 51°18.111 2°42.128 20.88 0.25907 1.585854 0.775459
2009-06-19 07:21:29 51°18.12 2°42.11 20.87 0.25907 1.585854 0.775459
2009-06-19 07:21:35 51°18.132 2°42.087 20.8791 0.25907 1.585884 0.775459
2009-06-19 07:21:39 51°18.139 2°42.073 20.8741 0.25907 1.585854 0.775459
2009-06-19 07:21:44 51°18.149 2°42.054 20.8746 0.25907 1.585884 0.740634
2009-06-19 07:21:49 51°18.158 2°42.036 20.875 0.25907 1.585884 0.740634
2009-06-19 07:21:55 51°18.169 2°42.013 20.8788 0.25907 1.585884 0.775459
2009-06-19 07:21:59 51°18.176 2°41.998 20.8723 0.25907 1.585884 0.740634
2009-06-19 07:22:04 51°18.186 2°41.98 20.8879 0.25907 1.585915 0.740634
2009-06-19 07:22:09 51°18.195 2°41.962 20.8806 0.25907 1.585915 0.740634
2009-06-19 07:22:15 51°18.207 2°41.94 20.8755 0.25907 1.585915 0.740634
2009-06-19 07:22:19 51°18.214 2°41.925 20.8802 0.258967 1.58525 0.775459
2009-06-19 07:22:24 51°18.223 2°41.907 20.8834 0.25907 1.585946 0.740634
2009-06-19 07:22:29 51°18.232 2°41.889 20.8845 0.25907 1.585946 0.740634
2009-06-19 07:22:35 51°18.244 2°41.868 20.8804 0.25907 1.585946 0.740634
2009-06-19 07:22:40 51°18.253 2°41.85 20.8864 0.258967 1.58528 0.740634
2009-06-19 07:22:44 51°18.26 2°41.835 20.8895 0.258967 1.58528 0.740634
2009-06-19 07:22:49 51°18.27 2°41.818 20.8947 0.25907 1.585977 0.775459
2009-06-19 07:22:55 51°18.28 2°41.796 20.885 0.25907 1.585946 0.775459
2009-06-19 07:23:00 51°18.29 2°41.778 20.8917 0.25907 1.585946 0.775459
2009-06-19 07:23:04 51°18.297 2°41.764 20.8903 0.258967 1.58528 0.740634
2009-06-19 07:23:09 51°18.306 2°41.745 20.885 0.25907 1.585977 0.740634
2009-06-19 07:23:15 51°18.317 2°41.724 20.9005 0.25907 1.586007 0.740634
2009-06-19 07:23:20 51°18.326 2°41.707 20.8958 0.25907 1.586007 0.740634
2009-06-19 07:23:24 51°18.333 2°41.693 20.89 0.258967 1.585342 0.740634
2009-06-19 07:23:29 51°18.342 2°41.676 20.8931 0.25907 1.586038 0.740634
2009-06-19 07:23:35 51°18.353 2°41.654 20.9048 0.258967 1.585342 0.740634
2009-06-19 07:23:39 51°18.36 2°41.64 20.9026 0.25907 1.586007 0.740634
2009-06-19 07:23:44 51°18.369 2°41.622 20.896 0.258967 1.585311 0.740634
2009-06-19 07:23:49 51°18.378 2°41.604 20.8969 0.258967 1.585311 0.740634
2009-06-19 07:23:55 51°18.39 2°41.582 20.897 0.258967 1.585311 0.775459
2009-06-19 07:24:00 51°18.399 2°41.565 20.9092 0.25907 1.585977 0.740634
2009-06-19 07:24:04 51°18.406 2°41.55 20.8974 0.25907 1.586007 0.740634
2009-06-19 07:24:09 51°18.416 2°41.533 20.9123 0.25907 1.585977 0.775459
2009-06-19 07:24:15 51°18.427 2°41.513 20.899 0.25907 1.585977 0.775459
2009-06-19 07:24:19 51°18.434 2°41.499 20.8952 0.258967 1.585342 0.775459
2009-06-19 07:24:24 51°18.443 2°41.481 20.9146 0.25907 1.586007 0.775459
2009-06-19 07:24:29 51°18.453 2°41.463 20.9042 0.258967 1.585373 0.775459
2009-06-19 07:24:35 51°18.464 2°41.442 20.9128 0.258967 1.585373 0.775459
2009-06-19 07:24:39 51°18.471 2°41.428 20.9094 0.25907 1.586038 0.740634
2009-06-19 07:24:44 51°18.48 2°41.41 20.9088 0.25907 1.586038 0.740634
2009-06-19 07:24:49 51°18.49 2°41.392 20.9093 0.258967 1.585373 0.740634
2009-06-19 07:24:55 51°18.501 2°41.37 20.906 0.25907 1.586038 0.740634
2009-06-19 07:25:00 51°18.51 2°41.353 20.903 0.258967 1.585404 0.740634
2009-06-19 07:25:04 51°18.518 2°41.339 20.9185 0.258967 1.585404 0.740634
2009-06-19 07:25:09 51°18.527 2°41.321 20.909 0.25907 1.5861 0.740634
2009-06-19 07:25:15 51°18.538 2°41.301 20.916 0.258967 1.585434 0.740634
2009-06-19 07:25:20 51°18.548 2°41.283 20.9201 0.258967 1.585434 0.740634
2009-06-19 07:25:24 51°18.555 2°41.269 20.9071 0.258967 1.585404 0.775459
2009-06-19 07:25:29 51°18.564 2°41.251 20.9169 0.25907 1.5861 0.740634
2009-06-19 07:25:34 51°18.573 2°41.232 20.9201 0.258967 1.585434 0.740634
2009-06-19 07:25:40 51°18.584 2°41.211 20.9196 0.258967 1.585434 0.740634
2009-06-19 07:25:44 51°18.592 2°41.197 20.9239 0.258967 1.585434 0.740634
2009-06-19 07:25:49 51°18.602 2°41.179 20.912 0.258967 1.585434 0.775459
2009-06-19 07:25:55 51°18.613 2°41.157 20.9213 0.258967 1.585434 0.740634
2009-06-19 07:26:00 51°18.623 2°41.139 20.9227 0.258967 1.585404 0.775459
2009-06-19 07:26:04 51°18.63 2°41.125 20.9146 0.258967 1.585465 0.740634
2009-06-19 07:26:09 51°18.639 2°41.107 20.9192 0.258967 1.585434 0.740634
2009-06-19 07:26:15 51°18.651 2°41.085 20.923 0.258967 1.585434 0.740634
2009-06-19 07:26:20 51°18.66 2°41.067 20.9252 0.258967 1.585465 0.740634
2009-06-19 07:26:24 51°18.667 2°41.053 20.9243 0.25907 1.586131 0.740634
2009-06-19 07:26:29 51°18.677 2°41.035 20.9214 0.258864 1.58483 0.740634
2009-06-19 07:26:35 51°18.688 2°41.015 20.9172 0.25907 1.586131 0.775459
2009-06-19 07:26:39 51°18.695 2°41.001 20.9275 0.258967 1.585465 0.740634
2009-06-19 07:26:44 51°18.704 2°40.983 20.9272 0.258967 1.585465 0.740634
2009-06-19 07:26:49 51°18.714 2°40.966 20.9312 0.258967 1.585465 0.775459
2009-06-19 07:26:55 51°18.725 2°40.945 20.9242 0.258967 1.585465 0.740634
2009-06-19 07:26:59 51°18.732 2°40.931 20.9336 0.258967 1.585496 0.775459
2009-06-19 07:27:04 51°18.742 2°40.913 20.9258 0.258967 1.585496 0.740634
2009-06-19 07:27:10 51°18.753 2°40.892 20.929 0.258967 1.585527 0.740634
2009-06-19 07:27:15 51°18.762 2°40.874 20.9308 0.258967 1.585527 0.775459
2009-06-19 07:27:19 51°18.77 2°40.86 20.9382 0.258967 1.585527 0.775459
2009-06-19 07:27:24 51°18.78 2°40.842 20.9251 0.258967 1.585557 0.740634
2009-06-19 07:27:28 51°18.787 2°40.829 20.9412 0.258967 1.585557 0.775459
2009-06-19 07:27:35 51°18.801 2°40.805 20.9335 0.258967 1.585527 0.740634
2009-06-19 07:27:40 51°18.81 2°40.787 20.9326 0.258967 1.585557 0.740634
2009-06-19 07:27:44 51°18.818 2°40.773 20.9384 0.258967 1.585557 0.740634
2009-06-19 07:27:49 51°18.828 2°40.755 20.9302 0.258967 1.585557 0.775459
2009-06-19 07:27:55 51°18.839 2°40.734 20.9318 0.258967 1.585557 0.740634
2009-06-19 07:27:59 51°18.847 2°40.72 20.9372 0.258967 1.585557 0.775459
2009-06-19 07:28:04 51°18.857 2°40.702 20.9298 0.258967 1.585557 0.740634
2009-06-19 07:28:08 51°18.864 2°40.688 20.9396 0.258967 1.585588 0.740634
2009-06-19 07:28:14 51°18.875 2°40.667 20.9409 0.258967 1.585588 0.740634
2009-06-19 07:28:20 51°18.887 2°40.645 20.9441 0.258967 1.585588 0.740634
2009-06-19 07:28:24 51°18.894 2°40.631 20.9453 0.258967 1.585588 0.740634
2009-06-19 07:28:29 51°18.903 2°40.613 20.9432 0.258967 1.585619 0.775459
2009-06-19 07:28:35 51°18.915 2°40.592 20.9368 0.258967 1.585619 0.740634
2009-06-19 07:28:40 51°18.924 2°40.574 20.9518 0.258967 1.585619 0.740634
2009-06-19 07:28:44 51°18.933 2°40.56 20.9441 0.258967 1.58565 0.740634
2009-06-19 07:28:49 51°18.942 2°40.543 20.9441 0.258967 1.58565 0.740634
2009-06-19 07:28:55 51°18.954 2°40.523 20.9576 0.258967 1.58565 0.740634
2009-06-19 07:28:59 51°18.962 2°40.51 20.9437 0.258864 1.584984 0.740634
2009-06-19 07:29:04 51°18.972 2°40.493 20.9431 0.25907 1.586346 0.740634
2009-06-19 07:29:10 51°18.983 2°40.472 20.9556 0.258864 1.584984 0.775459
2009-06-19 07:29:15 51°18.993 2°40.455 20.9532 0.258967 1.58565 0.775459
2009-06-19 07:29:19 51°19 2°40.441 20.9433 0.258967 1.58565 0.775459
2009-06-19 07:29:24 51°19.01 2°40.424 20.9556 0.258967 1.585681 0.775459
2009-06-19 07:29:30 51°19.021 2°40.402 20.9484 0.258864 1.585015 0.740634
2009-06-19 07:29:35 51°19.031 2°40.385 20.9514 0.258967 1.58565 0.740634
2009-06-19 07:29:39 51°19.039 2°40.371 20.9507 0.258864 1.584984 0.740634
2009-06-19 07:29:44 51°19.049 2°40.354 20.9603 0.258864 1.584984 0.740634
2009-06-19 07:29:48 51°19.056 2°40.339 20.9503 0.258967 1.58565 0.740634
2009-06-19 07:29:55 51°19.069 2°40.314 20.9612 0.258967 1.585681 0.740634
2009-06-19 07:30:00 51°19.079 2°40.296 20.952 0.258967 1.585681 0.740634
2009-06-19 07:30:04 51°19.087 2°40.282 20.9627 0.258864 1.585046 0.740634
2009-06-19 07:30:09 51°19.096 2°40.264 20.9539 0.258864 1.585046 0.740634
2009-06-19 07:30:15 51°19.108 2°40.243 20.9647 0.258967 1.585711 0.740634
2009-06-19 07:30:20 51°19.117 2°40.225 20.9573 0.258967 1.585711 0.740634
2009-06-19 07:30:24 51°19.125 2°40.211 20.9594 0.258864 1.585046 0.740634
2009-06-19 07:30:29 51°19.134 2°40.193 20.9695 0.258967 1.585711 0.740634
2009-06-19 07:30:34 51°19.144 2°40.176 20.9668 0.258864 1.585046 0.740634
2009-06-19 07:30:40 51°19.155 2°40.154 20.955 0.258967 1.585711 0.740634
2009-06-19 07:30:44 51°19.163 2°40.14 20.9561 0.258864 1.585046 0.775459
2009-06-19 07:30:49 51°19.173 2°40.122 20.9569 0.258864 1.585046 0.775459
2009-06-19 07:30:55 51°19.184 2°40.101 20.9668 0.258967 1.585742 0.740634
2009-06-19 07:30:59 51°19.192 2°40.087 20.9689 0.258864 1.585046 0.775459
2009-06-19 07:31:04 51°19.202 2°40.068 20.9704 0.258864 1.585077 0.740634
2009-06-19 07:31:08 51°19.209 2°40.054 20.9694 0.258967 1.585711 0.740634
2009-06-19 07:31:14 51°19.221 2°40.032 20.9565 0.258967 1.585711 0.740634
2009-06-19 07:31:19 51°19.23 2°40.015 20.9682 0.258864 1.585046 0.740634
2009-06-19 07:31:24 51°19.24 2°39.996 20.9756 0.258967 1.585742 0.740634
2009-06-19 07:31:30 51°19.251 2°39.975 20.969 0.258864 1.585077 0.740634
2009-06-19 07:31:35 51°19.261 2°39.957 20.9729 0.258864 1.585077 0.740634
2009-06-19 07:31:39 51°19.269 2°39.942 20.9738 0.258967 1.585742 0.740634
2009-06-19 07:31:44 51°19.278 2°39.924 20.9708 0.258967 1.585742 0.740634
2009-06-19 07:31:49 51°19.287 2°39.906 20.9636 0.258864 1.585077 0.740634
2009-06-19 07:31:55 51°19.299 2°39.884 20.9763 0.258864 1.585107 0.740634
2009-06-19 07:31:59 51°19.307 2°39.87 20.9766 0.258864 1.585107 0.740634
2009-06-19 07:32:04 51°19.317 2°39.852 20.9795 0.258864 1.585077 0.740634
2009-06-19 07:32:08 51°19.324 2°39.837 20.9803 0.258967 1.585773 0.740634
2009-06-19 07:32:15 51°19.338 2°39.812 20.9672 0.258864 1.585107 0.740634
2009-06-19 07:32:19 51°19.345 2°39.797 20.9793 0.258864 1.585107 0.740634
2009-06-19 07:32:24 51°19.355 2°39.779 20.9793 0.258864 1.585107 0.740634
2009-06-19 07:32:29 51°19.365 2°39.761 20.9832 0.258864 1.585107 0.740634
2009-06-19 07:32:35 51°19.376 2°39.738 20.9886 0.258864 1.585107 0.740634
2009-06-19 07:32:40 51°19.386 2°39.72 20.9733 0.258864 1.585138 0.740634
2009-06-19 07:32:44 51°19.393 2°39.705 20.9901 0.258864 1.585138 0.740634
2009-06-19 07:32:49 51°19.403 2°39.687 20.979 0.258864 1.585138 0.740634
2009-06-19 07:32:54 51°19.413 2°39.669 20.9911 0.258864 1.585169 0.775459
2009-06-19 07:33:00 51°19.424 2°39.647 20.9818 0.258864 1.585169 0.740634
2009-06-19 07:33:04 51°19.432 2°39.633 20.9903 0.258864 1.585169 0.740634
2009-06-19 07:33:10 51°19.443 2°39.611 20.9903 0.258864 1.585169 0.740634
2009-06-19 07:33:15 51°19.453 2°39.593 20.9857 0.258864 1.585169 0.740634
2009-06-19 07:33:19 51°19.461 2°39.579 20.981 0.258864 1.585169 0.740634
2009-06-19 07:33:24 51°19.471 2°39.561 20.9936 0.258864 1.585169 0.740634
2009-06-19 07:33:29 51°19.48 2°39.542 20.9893 0.258864 1.585169 0.740634
2009-06-19 07:33:35 51°19.492 2°39.52 20.994 0.258864 1.5852 0.740634
2009-06-19 07:33:39 51°19.5 2°39.506 20.9835 0.258864 1.5852 0.775459
2009-06-19 07:33:45 51°19.511 2°39.483 20.9866 0.258864 1.5852 0.740634
2009-06-19 07:33:49 51°19.519 2°39.469 20.9856 0.258864 1.5852 0.740634
2009-06-19 07:33:55 51°19.53 2°39.447 20.9889 0.258864 1.585231 0.775459
2009-06-19 07:34:00 51°19.54 2°39.429 20.994 0.258864 1.585231 0.740634
2009-06-19 07:34:04 51°19.548 2°39.414 20.9859 0.258864 1.585261 0.740634
2009-06-19 07:34:09 51°19.557 2°39.396 21.0029 0.258864 1.585261 0.740634
2009-06-19 07:34:15 51°19.568 2°39.374 20.9962 0.258864 1.585261 0.740634
2009-06-19 07:34:20 51°19.578 2°39.356 21.0058 0.258864 1.585261 0.740634
2009-06-19 07:34:24 51°19.586 2°39.342 20.9991 0.258864 1.585231 0.740634
2009-06-19 07:34:29 51°19.595 2°39.323 21.0051 0.258864 1.585261 0.740634
2009-06-19 07:34:35 51°19.607 2°39.301 20.9997 0.258864 1.585292 0.740634
2009-06-19 07:34:40 51°19.616 2°39.282 21.0089 0.258864 1.585261 0.775459
2009-06-19 07:34:44 51°19.624 2°39.267 20.9926 0.258864 1.585261 0.775459
2009-06-19 07:34:49 51°19.633 2°39.249 20.9957 0.258864 1.585261 0.740634
2009-06-19 07:34:55 51°19.645 2°39.226 21.0096 0.258967 1.585958 0.740634
2009-06-19 07:34:59 51°19.652 2°39.212 21.0013 0.258761 1.584657 0.740634
2009-06-19 07:35:04 51°19.662 2°39.195 21.0137 0.258864 1.585292 0.740634
2009-06-19 07:35:09 51°19.671 2°39.177 21.0126 0.258967 1.585958 0.740634
2009-06-19 07:35:15 51°19.682 2°39.155 21.0026 0.258967 1.585958 0.740634
2009-06-19 07:35:20 51°19.692 2°39.137 21.0037 0.258864 1.585292 0.775459
2009-06-19 07:35:24 51°19.699 2°39.123 21.0139 0.258967 1.585989 0.775459
2009-06-19 07:35:29 51°19.708 2°39.105 21.0116 0.258761 1.584657 0.740634
2009-06-19 07:35:35 51°19.72 2°39.083 21.0038 0.258864 1.585323 0.740634
2009-06-19 07:35:39 51°19.727 2°39.068 21.0124 0.258864 1.585323 0.740634
2009-06-19 07:35:45 51°19.739 2°39.045 21.0126 0.258864 1.585323 0.740634
2009-06-19 07:35:49 51°19.746 2°39.031 21.0099 0.258864 1.585323 0.740634
2009-06-19 07:35:55 51°19.757 2°39.009 21.0207 0.258864 1.585323 0.740634
2009-06-19 07:36:00 51°19.767 2°38.991 21.0193 0.258864 1.585323 0.740634
2009-06-19 07:36:04 51°19.775 2°38.976 21.0044 0.258864 1.585323 0.740634
2009-06-19 07:36:09 51°19.784 2°38.957 21.007 0.258864 1.585354 0.740634
2009-06-19 07:36:15 51°19.795 2°38.935 21.0177 0.258864 1.585385 0.740634
2009-06-19 07:36:19 51°19.803 2°38.92 21.0165 0.258864 1.585385 0.740634
2009-06-19 07:36:24 51°19.812 2°38.902 21.01 0.258864 1.585354 0.740634
2009-06-19 07:36:30 51°19.824 2°38.88 21.0156 0.258864 1.585385 0.775459
2009-06-19 07:36:35 51°19.833 2°38.862 21.025 0.258864 1.585385 0.740634
2009-06-19 07:36:40 51°19.843 2°38.844 21.0236 0.258864 1.585385 0.740634
2009-06-19 07:36:44 51°19.851 2°38.831 21.0111 0.258864 1.585385 0.740634
2009-06-19 07:36:49 51°19.86 2°38.813 21.0161 0.258864 1.585415 0.775459
2009-06-19 07:36:55 51°19.872 2°38.791 21.0161 0.258864 1.585415 0.740634
2009-06-19 07:37:00 51°19.882 2°38.773 21.0279 0.258864 1.585415 0.740634
2009-06-19 07:37:04 51°19.89 2°38.758 21.0224 0.258864 1.585415 0.740634
2009-06-19 07:37:09 51°19.899 2°38.741 21.0226 0.258864 1.585415 0.740634
2009-06-19 07:37:15 51°19.911 2°38.718 21.0238 0.258864 1.585415 0.740634
2009-06-19 07:37:19 51°19.919 2°38.704 21.024 0.258864 1.585415 0.740634
2009-06-19 07:37:24 51°19.928 2°38.685 21.0294 0.258864 1.585415 0.740634
2009-06-19 07:37:28 51°19.936 2°38.67 21.0211 0.258864 1.585415 0.740634
2009-06-19 07:37:35 51°19.95 2°38.645 21.029 0.258864 1.585446 0.740634
2009-06-19 07:37:40 51°19.959 2°38.626 21.0196 0.258864 1.585477 0.740634
2009-06-19 07:37:44 51°19.967 2°38.612 21.0304 0.258864 1.585477 0.740634
2009-06-19 07:37:49 51°19.976 2°38.593 21.0246 0.258864 1.585477 0.740634
2009-06-19 07:37:55 51°19.987 2°38.571 21.0387 0.258864 1.585477 0.775459
2009-06-19 07:37:59 51°19.995 2°38.556 21.0245 0.258864 1.585508 0.775459
2009-06-19 07:38:04 51°20.004 2°38.539 21.0357 0.258864 1.585508 0.740634
2009-06-19 07:38:09 51°20.013 2°38.521 21.0246 0.258864 1.585508 0.740634
2009-06-19 07:38:15 51°20.025 2°38.5 21.0428 0.258864 1.585508 0.740634
2009-06-19 07:38:19 51°20.031 2°38.485 21.0443 0.258864 1.585508 0.740634
2009-06-19 07:38:24 51°20.041 2°38.467 21.0308 0.258864 1.585508 0.740634
2009-06-19 07:38:29 51°20.05 2°38.449 21.0375 0.258864 1.585508 0.740634
2009-06-19 07:38:35 51°20.061 2°38.427 21.0263 0.258864 1.585508 0.740634
2009-06-19 07:38:40 51°20.07 2°38.409 21.0428 0.258761 1.584873 0.775459
2009-06-19 07:38:44 51°20.078 2°38.394 21.0373 0.258761 1.584873 0.775459
2009-06-19 07:38:49 51°20.087 2°38.377 21.0431 0.258864 1.585508 0.740634
2009-06-19 07:38:55 51°20.098 2°38.355 21.0468 0.258761 1.584873 0.740634
2009-06-19 07:39:00 51°20.108 2°38.338 21.0459 0.258864 1.585569 0.775459
2009-06-19 07:39:04 51°20.115 2°38.324 21.035 0.258967 1.586235 0.740634
2009-06-19 07:39:09 51°20.124 2°38.306 21.0528 0.258761 1.584934 0.740634
2009-06-19 07:39:15 51°20.135 2°38.286 21.0528 0.258864 1.585569 0.740634
2009-06-19 07:39:19 51°20.143 2°38.272 21.0368 0.258864 1.585569 0.740634
2009-06-19 07:39:24 51°20.151 2°38.253 21.0504 0.258864 1.5856 0.740634
2009-06-19 07:39:29 51°20.161 2°38.236 21.0386 0.258864 1.585569 0.740634
2009-06-19 07:39:35 51°20.172 2°38.214 21.0569 0.258761 1.584934 0.775459
2009-06-19 07:39:40 51°20.181 2°38.197 21.0409 0.258864 1.5856 0.775459
2009-06-19 07:39:44 51°20.188 2°38.182 21.0509 0.258864 1.5856 0.775459
2009-06-19 07:39:49 51°20.197 2°38.164 21.0554 0.258864 1.5856 0.775459
2009-06-19 07:39:55 51°20.209 2°38.142 21.061 0.258864 1.5856 0.740634
2009-06-19 07:40:00 51°20.218 2°38.124 21.0398 0.258864 1.585569 0.740634
2009-06-19 07:40:05 51°20.227 2°38.106 21.0564 0.258864 1.5856 0.740634
2009-06-19 07:40:09 51°20.234 2°38.092 21.0576 0.258864 1.5856 0.740634
2009-06-19 07:40:15 51°20.246 2°38.07 21.0464 0.258864 1.5856 0.740634
2009-06-19 07:40:20 51°20.255 2°38.051 21.0627 0.258864 1.5856 0.740634
2009-06-19 07:40:24 51°20.262 2°38.037 21.0437 0.258761 1.584965 0.740634
2009-06-19 07:40:29 51°20.271 2°38.019 21.0655 0.258864 1.585662 0.775459
2009-06-19 07:40:35 51°20.283 2°37.998 21.0569 0.258864 1.585693 0.740634
2009-06-19 07:40:39 51°20.29 2°37.984 21.0461 0.258864 1.585662 0.740634
2009-06-19 07:40:44 51°20.299 2°37.966 21.0628 0.258864 1.585662 0.740634
2009-06-19 07:40:50 51°20.31 2°37.944 21.0603 0.258864 1.585662 0.775459
2009-06-19 07:40:55 51°20.32 2°37.926 21.0685 0.258864 1.585662 0.775459
2009-06-19 07:40:59 51°20.327 2°37.912 21.054 0.258761 1.584996 0.740634
2009-06-19 07:41:04 51°20.337 2°37.894 21.056 0.258864 1.585693 0.775459
2009-06-19 07:41:09 51°20.346 2°37.877 21.0692 0.258864 1.585723 0.740634
2009-06-19 07:41:15 51°20.357 2°37.856 21.0674 0.258761 1.585088 0.775459
2009-06-19 07:41:20 51°20.366 2°37.839 21.0667 0.258761 1.585088 0.775459
2009-06-19 07:41:24 51°20.374 2°37.826 21.0705 0.258864 1.585754 0.775459
2009-06-19 07:41:30 51°20.385 2°37.806 21.0741 0.258864 1.585723 0.740634
2009-06-19 07:41:35 51°20.394 2°37.789 21.0551 0.258864 1.585723 0.740634
2009-06-19 07:41:40 51°20.404 2°37.771 21.0777 0.258761 1.585088 0.740634
2009-06-19 07:41:44 51°20.411 2°37.757 21.0656 0.258864 1.585816 0.775459
2009-06-19 07:41:49 51°20.42 2°37.74 21.068 0.258864 1.585816 0.775459
2009-06-19 07:41:55 51°20.431 2°37.72 21.0772 0.258864 1.585785 0.775459
2009-06-19 07:41:59 51°20.438 2°37.705 21.0644 0.258864 1.585816 0.740634
2009-06-19 07:42:04 51°20.447 2°37.688 21.0794 0.258864 1.585816 0.775459
2009-06-19 07:42:09 51°20.457 2°37.67 21.0831 0.258864 1.585785 0.740634
2009-06-19 07:42:15 51°20.468 2°37.648 21.064 0.258864 1.585785 0.740634
2009-06-19 07:42:19 51°20.475 2°37.634 21.0843 0.258864 1.585785 0.740634
2009-06-19 07:42:25 51°20.486 2°37.613 21.0676 0.258761 1.585119 0.775459